<?xml version="1.0" encoding="UTF-8" standalone="no" ?>
<gpx xmlns="http://www.topografix.com/GPX/1/1" xmlns:xsi="http://www.w3.org/2001/XMLSchema-instance" xsi:schemaLocation="http://www.topografix.com/GPX/1/1 http://www.topografix.com/GPX/1/1/gpx.xsd" version="1.1" creator="VisuGPX - https://www.visugpx.com">
  <metadata>
    <name>saint andiol saint remy</name>
    <desc><![CDATA[saint andiol saint remy entrainement rando espagne]]></desc>
  </metadata>
  <trk>
    <name><![CDATA[17-AVR-15 21:08:00]]></name>
    <trkseg>
      <trkpt lat="43.83748" lon="4.93729">
        <ele>48.68</ele>
        <time>2015-04-17T13:17:25Z</time>
      </trkpt>
      <trkpt lat="43.83748" lon="4.93729">
        <ele>48.2</ele>
        <time>2015-04-17T13:17:31Z</time>
      </trkpt>
      <trkpt lat="43.83748" lon="4.93731">
        <ele>49.16</ele>
        <time>2015-04-17T13:17:48Z</time>
      </trkpt>
      <trkpt lat="43.83741" lon="4.93736">
        <ele>48.68</ele>
        <time>2015-04-17T13:17:54Z</time>
      </trkpt>
      <trkpt lat="43.83746" lon="4.93732">
        <ele>48.68</ele>
        <time>2015-04-17T13:18:11Z</time>
      </trkpt>
      <trkpt lat="43.83746" lon="4.93734">
        <ele>48.68</ele>
        <time>2015-04-17T13:18:26Z</time>
      </trkpt>
      <trkpt lat="43.83717" lon="4.93748">
        <ele>48.68</ele>
        <time>2015-04-17T13:18:53Z</time>
      </trkpt>
      <trkpt lat="43.83697" lon="4.93755">
        <ele>48.68</ele>
        <time>2015-04-17T13:19:12Z</time>
      </trkpt>
      <trkpt lat="43.83668" lon="4.9376">
        <ele>48.68</ele>
        <time>2015-04-17T13:19:36Z</time>
      </trkpt>
      <trkpt lat="43.83636" lon="4.93763">
        <ele>48.68</ele>
        <time>2015-04-17T13:20:03Z</time>
      </trkpt>
      <trkpt lat="43.83632" lon="4.93751">
        <ele>48.68</ele>
        <time>2015-04-17T13:20:13Z</time>
      </trkpt>
      <trkpt lat="43.83632" lon="4.93745">
        <ele>48.68</ele>
        <time>2015-04-17T13:20:17Z</time>
      </trkpt>
      <trkpt lat="43.8363" lon="4.93701">
        <ele>48.68</ele>
        <time>2015-04-17T13:20:42Z</time>
      </trkpt>
      <trkpt lat="43.83627" lon="4.93668">
        <ele>48.2</ele>
        <time>2015-04-17T13:21:00Z</time>
      </trkpt>
      <trkpt lat="43.83624" lon="4.93623">
        <ele>48.2</ele>
        <time>2015-04-17T13:21:20Z</time>
      </trkpt>
      <trkpt lat="43.83628" lon="4.93586">
        <ele>48.2</ele>
        <time>2015-04-17T13:21:41Z</time>
      </trkpt>
      <trkpt lat="43.83633" lon="4.93553">
        <ele>48.2</ele>
        <time>2015-04-17T13:22:01Z</time>
      </trkpt>
      <trkpt lat="43.83638" lon="4.93517">
        <ele>48.2</ele>
        <time>2015-04-17T13:22:19Z</time>
      </trkpt>
      <trkpt lat="43.83641" lon="4.93473">
        <ele>48.2</ele>
        <time>2015-04-17T13:22:43Z</time>
      </trkpt>
      <trkpt lat="43.83638" lon="4.93438">
        <ele>48.2</ele>
        <time>2015-04-17T13:23:03Z</time>
      </trkpt>
      <trkpt lat="43.83635" lon="4.93418">
        <ele>48.68</ele>
        <time>2015-04-17T13:23:16Z</time>
      </trkpt>
      <trkpt lat="43.83613" lon="4.93414">
        <ele>48.2</ele>
        <time>2015-04-17T13:23:35Z</time>
      </trkpt>
      <trkpt lat="43.83586" lon="4.93414">
        <ele>48.2</ele>
        <time>2015-04-17T13:23:56Z</time>
      </trkpt>
      <trkpt lat="43.83563" lon="4.93412">
        <ele>48.68</ele>
        <time>2015-04-17T13:24:16Z</time>
      </trkpt>
      <trkpt lat="43.8354" lon="4.93411">
        <ele>48.68</ele>
        <time>2015-04-17T13:24:34Z</time>
      </trkpt>
      <trkpt lat="43.8352" lon="4.93409">
        <ele>48.68</ele>
        <time>2015-04-17T13:24:51Z</time>
      </trkpt>
      <trkpt lat="43.83513" lon="4.93399">
        <ele>48.68</ele>
        <time>2015-04-17T13:25:00Z</time>
      </trkpt>
      <trkpt lat="43.83512" lon="4.93389">
        <ele>48.2</ele>
        <time>2015-04-17T13:25:05Z</time>
      </trkpt>
      <trkpt lat="43.83516" lon="4.93347">
        <ele>48.68</ele>
        <time>2015-04-17T13:25:28Z</time>
      </trkpt>
      <trkpt lat="43.83516" lon="4.93308">
        <ele>48.68</ele>
        <time>2015-04-17T13:25:51Z</time>
      </trkpt>
      <trkpt lat="43.83503" lon="4.93277">
        <ele>48.2</ele>
        <time>2015-04-17T13:26:12Z</time>
      </trkpt>
      <trkpt lat="43.83487" lon="4.93255">
        <ele>48.68</ele>
        <time>2015-04-17T13:26:30Z</time>
      </trkpt>
      <trkpt lat="43.83472" lon="4.93221">
        <ele>48.68</ele>
        <time>2015-04-17T13:26:52Z</time>
      </trkpt>
      <trkpt lat="43.83457" lon="4.93181">
        <ele>48.68</ele>
        <time>2015-04-17T13:27:18Z</time>
      </trkpt>
      <trkpt lat="43.83445" lon="4.93142">
        <ele>48.68</ele>
        <time>2015-04-17T13:27:39Z</time>
      </trkpt>
      <trkpt lat="43.8343" lon="4.93089">
        <ele>48.68</ele>
        <time>2015-04-17T13:28:09Z</time>
      </trkpt>
      <trkpt lat="43.83424" lon="4.9305">
        <ele>48.68</ele>
        <time>2015-04-17T13:28:30Z</time>
      </trkpt>
      <trkpt lat="43.83415" lon="4.93017">
        <ele>48.68</ele>
        <time>2015-04-17T13:28:49Z</time>
      </trkpt>
      <trkpt lat="43.83405" lon="4.92982">
        <ele>48.2</ele>
        <time>2015-04-17T13:29:09Z</time>
      </trkpt>
      <trkpt lat="43.83396" lon="4.92948">
        <ele>48.2</ele>
        <time>2015-04-17T13:29:30Z</time>
      </trkpt>
      <trkpt lat="43.83389" lon="4.92924">
        <ele>48.2</ele>
        <time>2015-04-17T13:29:45Z</time>
      </trkpt>
      <trkpt lat="43.83389" lon="4.92909">
        <ele>48.2</ele>
        <time>2015-04-17T13:30:03Z</time>
      </trkpt>
      <trkpt lat="43.83389" lon="4.92893">
        <ele>48.2</ele>
        <time>2015-04-17T13:30:16Z</time>
      </trkpt>
      <trkpt lat="43.8339" lon="4.92892">
        <ele>48.2</ele>
        <time>2015-04-17T13:30:17Z</time>
      </trkpt>
      <trkpt lat="43.83418" lon="4.92872">
        <ele>48.2</ele>
        <time>2015-04-17T13:30:34Z</time>
      </trkpt>
      <trkpt lat="43.83423" lon="4.92864">
        <ele>47.72</ele>
        <time>2015-04-17T13:30:41Z</time>
      </trkpt>
      <trkpt lat="43.83423" lon="4.92861">
        <ele>47.72</ele>
        <time>2015-04-17T13:30:43Z</time>
      </trkpt>
      <trkpt lat="43.83423" lon="4.92859">
        <ele>47.72</ele>
        <time>2015-04-17T13:30:44Z</time>
      </trkpt>
      <trkpt lat="43.83422" lon="4.92857">
        <ele>47.24</ele>
        <time>2015-04-17T13:30:45Z</time>
      </trkpt>
      <trkpt lat="43.83406" lon="4.92803">
        <ele>47.72</ele>
        <time>2015-04-17T13:31:03Z</time>
      </trkpt>
      <trkpt lat="43.83384" lon="4.92742">
        <ele>47.72</ele>
        <time>2015-04-17T13:31:25Z</time>
      </trkpt>
      <trkpt lat="43.83365" lon="4.92685">
        <ele>46.76</ele>
        <time>2015-04-17T13:31:42Z</time>
      </trkpt>
      <trkpt lat="43.83353" lon="4.92606">
        <ele>46.76</ele>
        <time>2015-04-17T13:32:05Z</time>
      </trkpt>
      <trkpt lat="43.83357" lon="4.92561">
        <ele>47.24</ele>
        <time>2015-04-17T13:32:23Z</time>
      </trkpt>
      <trkpt lat="43.8335" lon="4.92492">
        <ele>46.76</ele>
        <time>2015-04-17T13:32:40Z</time>
      </trkpt>
      <trkpt lat="43.83335" lon="4.92439">
        <ele>46.76</ele>
        <time>2015-04-17T13:32:56Z</time>
      </trkpt>
      <trkpt lat="43.83316" lon="4.92375">
        <ele>46.76</ele>
        <time>2015-04-17T13:33:11Z</time>
      </trkpt>
      <trkpt lat="43.83306" lon="4.9233">
        <ele>46.76</ele>
        <time>2015-04-17T13:33:24Z</time>
      </trkpt>
      <trkpt lat="43.83287" lon="4.92285">
        <ele>46.76</ele>
        <time>2015-04-17T13:33:38Z</time>
      </trkpt>
      <trkpt lat="43.83255" lon="4.92228">
        <ele>46.28</ele>
        <time>2015-04-17T13:33:55Z</time>
      </trkpt>
      <trkpt lat="43.83226" lon="4.92183">
        <ele>46.28</ele>
        <time>2015-04-17T13:34:10Z</time>
      </trkpt>
      <trkpt lat="43.83204" lon="4.92146">
        <ele>46.28</ele>
        <time>2015-04-17T13:34:26Z</time>
      </trkpt>
      <trkpt lat="43.83191" lon="4.92126">
        <ele>46.28</ele>
        <time>2015-04-17T13:34:39Z</time>
      </trkpt>
      <trkpt lat="43.83166" lon="4.92091">
        <ele>46.28</ele>
        <time>2015-04-17T13:34:54Z</time>
      </trkpt>
      <trkpt lat="43.83148" lon="4.92038">
        <ele>45.8</ele>
        <time>2015-04-17T13:35:10Z</time>
      </trkpt>
      <trkpt lat="43.83134" lon="4.91982">
        <ele>45.8</ele>
        <time>2015-04-17T13:35:28Z</time>
      </trkpt>
      <trkpt lat="43.83126" lon="4.91952">
        <ele>45.8</ele>
        <time>2015-04-17T13:35:47Z</time>
      </trkpt>
      <trkpt lat="43.83115" lon="4.91913">
        <ele>45.8</ele>
        <time>2015-04-17T13:36:03Z</time>
      </trkpt>
      <trkpt lat="43.83101" lon="4.91865">
        <ele>45.32</ele>
        <time>2015-04-17T13:36:17Z</time>
      </trkpt>
      <trkpt lat="43.83087" lon="4.91806">
        <ele>45.32</ele>
        <time>2015-04-17T13:36:32Z</time>
      </trkpt>
      <trkpt lat="43.83073" lon="4.91748">
        <ele>45.8</ele>
        <time>2015-04-17T13:36:49Z</time>
      </trkpt>
      <trkpt lat="43.83061" lon="4.91697">
        <ele>45.8</ele>
        <time>2015-04-17T13:37:03Z</time>
      </trkpt>
      <trkpt lat="43.83054" lon="4.91637">
        <ele>45.32</ele>
        <time>2015-04-17T13:37:19Z</time>
      </trkpt>
      <trkpt lat="43.83052" lon="4.91564">
        <ele>45.32</ele>
        <time>2015-04-17T13:37:37Z</time>
      </trkpt>
      <trkpt lat="43.8305" lon="4.91498">
        <ele>44.84</ele>
        <time>2015-04-17T13:37:52Z</time>
      </trkpt>
      <trkpt lat="43.83047" lon="4.91432">
        <ele>44.36</ele>
        <time>2015-04-17T13:38:08Z</time>
      </trkpt>
      <trkpt lat="43.83063" lon="4.91366">
        <ele>44.84</ele>
        <time>2015-04-17T13:38:26Z</time>
      </trkpt>
      <trkpt lat="43.83079" lon="4.91301">
        <ele>44.36</ele>
        <time>2015-04-17T13:38:43Z</time>
      </trkpt>
      <trkpt lat="43.83093" lon="4.91261">
        <ele>44.36</ele>
        <time>2015-04-17T13:38:59Z</time>
      </trkpt>
      <trkpt lat="43.83107" lon="4.91222">
        <ele>44.36</ele>
        <time>2015-04-17T13:39:14Z</time>
      </trkpt>
      <trkpt lat="43.83127" lon="4.91173">
        <ele>43.88</ele>
        <time>2015-04-17T13:39:34Z</time>
      </trkpt>
      <trkpt lat="43.83145" lon="4.91128">
        <ele>43.88</ele>
        <time>2015-04-17T13:39:49Z</time>
      </trkpt>
      <trkpt lat="43.8315" lon="4.91074">
        <ele>43.88</ele>
        <time>2015-04-17T13:40:05Z</time>
      </trkpt>
      <trkpt lat="43.83153" lon="4.91022">
        <ele>43.88</ele>
        <time>2015-04-17T13:40:23Z</time>
      </trkpt>
      <trkpt lat="43.83156" lon="4.90976">
        <ele>43.88</ele>
        <time>2015-04-17T13:40:44Z</time>
      </trkpt>
      <trkpt lat="43.8316" lon="4.90919">
        <ele>43.88</ele>
        <time>2015-04-17T13:41:09Z</time>
      </trkpt>
      <trkpt lat="43.83161" lon="4.90872">
        <ele>43.4</ele>
        <time>2015-04-17T13:41:27Z</time>
      </trkpt>
      <trkpt lat="43.83161" lon="4.90828">
        <ele>43.4</ele>
        <time>2015-04-17T13:41:47Z</time>
      </trkpt>
      <trkpt lat="43.83161" lon="4.90788">
        <ele>43.4</ele>
        <time>2015-04-17T13:42:06Z</time>
      </trkpt>
      <trkpt lat="43.83147" lon="4.9076">
        <ele>43.4</ele>
        <time>2015-04-17T13:42:22Z</time>
      </trkpt>
      <trkpt lat="43.83128" lon="4.90723">
        <ele>43.4</ele>
        <time>2015-04-17T13:42:40Z</time>
      </trkpt>
      <trkpt lat="43.83112" lon="4.90684">
        <ele>42.92</ele>
        <time>2015-04-17T13:43:01Z</time>
      </trkpt>
      <trkpt lat="43.83113" lon="4.9064">
        <ele>42.44</ele>
        <time>2015-04-17T13:43:16Z</time>
      </trkpt>
      <trkpt lat="43.83111" lon="4.90585">
        <ele>41.95</ele>
        <time>2015-04-17T13:43:33Z</time>
      </trkpt>
      <trkpt lat="43.83111" lon="4.90558">
        <ele>41.95</ele>
        <time>2015-04-17T13:43:47Z</time>
      </trkpt>
      <trkpt lat="43.83111" lon="4.9056">
        <ele>41.95</ele>
        <time>2015-04-17T13:43:48Z</time>
      </trkpt>
      <trkpt lat="43.83111" lon="4.90562">
        <ele>41.95</ele>
        <time>2015-04-17T13:43:49Z</time>
      </trkpt>
      <trkpt lat="43.8311" lon="4.90563">
        <ele>41.95</ele>
        <time>2015-04-17T13:44:02Z</time>
      </trkpt>
      <trkpt lat="43.8311" lon="4.90561">
        <ele>41.95</ele>
        <time>2015-04-17T13:44:17Z</time>
      </trkpt>
      <trkpt lat="43.83111" lon="4.90559">
        <ele>41.95</ele>
        <time>2015-04-17T13:44:34Z</time>
      </trkpt>
      <trkpt lat="43.83112" lon="4.90556">
        <ele>41.95</ele>
        <time>2015-04-17T13:44:43Z</time>
      </trkpt>
      <trkpt lat="43.83113" lon="4.90553">
        <ele>42.44</ele>
        <time>2015-04-17T13:44:53Z</time>
      </trkpt>
      <trkpt lat="43.83113" lon="4.90552">
        <ele>42.44</ele>
        <time>2015-04-17T13:44:56Z</time>
      </trkpt>
      <trkpt lat="43.83113" lon="4.9055">
        <ele>42.44</ele>
        <time>2015-04-17T13:44:57Z</time>
      </trkpt>
      <trkpt lat="43.83112" lon="4.90507">
        <ele>42.44</ele>
        <time>2015-04-17T13:45:18Z</time>
      </trkpt>
      <trkpt lat="43.83111" lon="4.90463">
        <ele>42.44</ele>
        <time>2015-04-17T13:45:36Z</time>
      </trkpt>
      <trkpt lat="43.83112" lon="4.90422">
        <ele>41.95</ele>
        <time>2015-04-17T13:45:52Z</time>
      </trkpt>
      <trkpt lat="43.8311" lon="4.90397">
        <ele>42.44</ele>
        <time>2015-04-17T13:46:04Z</time>
      </trkpt>
      <trkpt lat="43.83112" lon="4.90395">
        <ele>42.44</ele>
        <time>2015-04-17T13:46:05Z</time>
      </trkpt>
      <trkpt lat="43.83143" lon="4.90384">
        <ele>42.44</ele>
        <time>2015-04-17T13:46:21Z</time>
      </trkpt>
      <trkpt lat="43.83174" lon="4.90368">
        <ele>42.44</ele>
        <time>2015-04-17T13:46:35Z</time>
      </trkpt>
      <trkpt lat="43.83203" lon="4.90347">
        <ele>41.95</ele>
        <time>2015-04-17T13:46:50Z</time>
      </trkpt>
      <trkpt lat="43.83204" lon="4.90345">
        <ele>41.95</ele>
        <time>2015-04-17T13:46:51Z</time>
      </trkpt>
      <trkpt lat="43.83204" lon="4.90343">
        <ele>41.95</ele>
        <time>2015-04-17T13:46:52Z</time>
      </trkpt>
      <trkpt lat="43.83203" lon="4.90341">
        <ele>42.44</ele>
        <time>2015-04-17T13:46:53Z</time>
      </trkpt>
      <trkpt lat="43.83202" lon="4.90338">
        <ele>42.44</ele>
        <time>2015-04-17T13:46:54Z</time>
      </trkpt>
      <trkpt lat="43.832" lon="4.90336">
        <ele>42.44</ele>
        <time>2015-04-17T13:46:55Z</time>
      </trkpt>
      <trkpt lat="43.83199" lon="4.90334">
        <ele>42.44</ele>
        <time>2015-04-17T13:46:56Z</time>
      </trkpt>
      <trkpt lat="43.83192" lon="4.90296">
        <ele>41.95</ele>
        <time>2015-04-17T13:47:10Z</time>
      </trkpt>
      <trkpt lat="43.83187" lon="4.90225">
        <ele>41.95</ele>
        <time>2015-04-17T13:47:33Z</time>
      </trkpt>
      <trkpt lat="43.83182" lon="4.90169">
        <ele>41.95</ele>
        <time>2015-04-17T13:47:52Z</time>
      </trkpt>
      <trkpt lat="43.83179" lon="4.90114">
        <ele>41.47</ele>
        <time>2015-04-17T13:48:11Z</time>
      </trkpt>
      <trkpt lat="43.83175" lon="4.90061">
        <ele>41.47</ele>
        <time>2015-04-17T13:48:28Z</time>
      </trkpt>
      <trkpt lat="43.83174" lon="4.9003">
        <ele>41.95</ele>
        <time>2015-04-17T13:48:43Z</time>
      </trkpt>
      <trkpt lat="43.83187" lon="4.89975">
        <ele>41.47</ele>
        <time>2015-04-17T13:49:02Z</time>
      </trkpt>
      <trkpt lat="43.83205" lon="4.89904">
        <ele>41.47</ele>
        <time>2015-04-17T13:49:23Z</time>
      </trkpt>
      <trkpt lat="43.83222" lon="4.89832">
        <ele>41.95</ele>
        <time>2015-04-17T13:49:45Z</time>
      </trkpt>
      <trkpt lat="43.83238" lon="4.89774">
        <ele>40.99</ele>
        <time>2015-04-17T13:50:02Z</time>
      </trkpt>
      <trkpt lat="43.83253" lon="4.89717">
        <ele>41.47</ele>
        <time>2015-04-17T13:50:17Z</time>
      </trkpt>
      <trkpt lat="43.83256" lon="4.89697">
        <ele>41.95</ele>
        <time>2015-04-17T13:50:26Z</time>
      </trkpt>
      <trkpt lat="43.83256" lon="4.89696">
        <ele>41.47</ele>
        <time>2015-04-17T13:50:27Z</time>
      </trkpt>
      <trkpt lat="43.8325" lon="4.89693">
        <ele>41.95</ele>
        <time>2015-04-17T13:50:30Z</time>
      </trkpt>
      <trkpt lat="43.83215" lon="4.89683">
        <ele>41.47</ele>
        <time>2015-04-17T13:50:49Z</time>
      </trkpt>
      <trkpt lat="43.83182" lon="4.89675">
        <ele>41.47</ele>
        <time>2015-04-17T13:51:12Z</time>
      </trkpt>
      <trkpt lat="43.83149" lon="4.89666">
        <ele>41.95</ele>
        <time>2015-04-17T13:51:35Z</time>
      </trkpt>
      <trkpt lat="43.83134" lon="4.89662">
        <ele>41.95</ele>
        <time>2015-04-17T13:51:46Z</time>
      </trkpt>
      <trkpt lat="43.83113" lon="4.89656">
        <ele>41.95</ele>
        <time>2015-04-17T13:52:01Z</time>
      </trkpt>
      <trkpt lat="43.83089" lon="4.89651">
        <ele>41.95</ele>
        <time>2015-04-17T13:52:18Z</time>
      </trkpt>
      <trkpt lat="43.8306" lon="4.89641">
        <ele>41.95</ele>
        <time>2015-04-17T13:52:38Z</time>
      </trkpt>
      <trkpt lat="43.83032" lon="4.89636">
        <ele>41.95</ele>
        <time>2015-04-17T13:52:56Z</time>
      </trkpt>
      <trkpt lat="43.82998" lon="4.89625">
        <ele>41.95</ele>
        <time>2015-04-17T13:53:19Z</time>
      </trkpt>
      <trkpt lat="43.82965" lon="4.89615">
        <ele>41.95</ele>
        <time>2015-04-17T13:53:42Z</time>
      </trkpt>
      <trkpt lat="43.82924" lon="4.89602">
        <ele>41.47</ele>
        <time>2015-04-17T13:54:11Z</time>
      </trkpt>
      <trkpt lat="43.82896" lon="4.89595">
        <ele>41.95</ele>
        <time>2015-04-17T13:54:31Z</time>
      </trkpt>
      <trkpt lat="43.82864" lon="4.89583">
        <ele>41.95</ele>
        <time>2015-04-17T13:54:53Z</time>
      </trkpt>
      <trkpt lat="43.8284" lon="4.89578">
        <ele>41.95</ele>
        <time>2015-04-17T13:55:12Z</time>
      </trkpt>
      <trkpt lat="43.82809" lon="4.89569">
        <ele>41.95</ele>
        <time>2015-04-17T13:55:32Z</time>
      </trkpt>
      <trkpt lat="43.82783" lon="4.89563">
        <ele>41.95</ele>
        <time>2015-04-17T13:55:47Z</time>
      </trkpt>
      <trkpt lat="43.82758" lon="4.89557">
        <ele>41.95</ele>
        <time>2015-04-17T13:56:04Z</time>
      </trkpt>
      <trkpt lat="43.82727" lon="4.89547">
        <ele>41.47</ele>
        <time>2015-04-17T13:56:18Z</time>
      </trkpt>
      <trkpt lat="43.82695" lon="4.89537">
        <ele>41.95</ele>
        <time>2015-04-17T13:56:32Z</time>
      </trkpt>
      <trkpt lat="43.82658" lon="4.89525">
        <ele>41.95</ele>
        <time>2015-04-17T13:56:49Z</time>
      </trkpt>
      <trkpt lat="43.82623" lon="4.89514">
        <ele>41.95</ele>
        <time>2015-04-17T13:57:05Z</time>
      </trkpt>
      <trkpt lat="43.8258" lon="4.89505">
        <ele>41.47</ele>
        <time>2015-04-17T13:57:23Z</time>
      </trkpt>
      <trkpt lat="43.82552" lon="4.89498">
        <ele>41.47</ele>
        <time>2015-04-17T13:57:36Z</time>
      </trkpt>
      <trkpt lat="43.82526" lon="4.8949">
        <ele>41.47</ele>
        <time>2015-04-17T13:57:52Z</time>
      </trkpt>
      <trkpt lat="43.82513" lon="4.89486">
        <ele>38.11</ele>
        <time>2015-04-17T13:57:59Z</time>
      </trkpt>
      <trkpt lat="43.82512" lon="4.89486">
        <ele>42.44</ele>
        <time>2015-04-17T13:58:00Z</time>
      </trkpt>
      <trkpt lat="43.82503" lon="4.89481">
        <ele>41.47</ele>
        <time>2015-04-17T13:58:12Z</time>
      </trkpt>
      <trkpt lat="43.82506" lon="4.89483">
        <ele>40.99</ele>
        <time>2015-04-17T13:58:30Z</time>
      </trkpt>
      <trkpt lat="43.82509" lon="4.89481">
        <ele>40.99</ele>
        <time>2015-04-17T13:58:44Z</time>
      </trkpt>
      <trkpt lat="43.82504" lon="4.89482">
        <ele>40.99</ele>
        <time>2015-04-17T13:58:59Z</time>
      </trkpt>
      <trkpt lat="43.82506" lon="4.89482">
        <ele>40.99</ele>
        <time>2015-04-17T13:59:18Z</time>
      </trkpt>
      <trkpt lat="43.82506" lon="4.89483">
        <ele>40.99</ele>
        <time>2015-04-17T13:59:28Z</time>
      </trkpt>
      <trkpt lat="43.82495" lon="4.89479">
        <ele>41.47</ele>
        <time>2015-04-17T13:59:42Z</time>
      </trkpt>
      <trkpt lat="43.82469" lon="4.89473">
        <ele>41.47</ele>
        <time>2015-04-17T14:00:02Z</time>
      </trkpt>
      <trkpt lat="43.82449" lon="4.89467">
        <ele>41.47</ele>
        <time>2015-04-17T14:00:18Z</time>
      </trkpt>
      <trkpt lat="43.82427" lon="4.8946">
        <ele>41.95</ele>
        <time>2015-04-17T14:00:35Z</time>
      </trkpt>
      <trkpt lat="43.82407" lon="4.89455">
        <ele>41.47</ele>
        <time>2015-04-17T14:00:50Z</time>
      </trkpt>
      <trkpt lat="43.82384" lon="4.89447">
        <ele>41.47</ele>
        <time>2015-04-17T14:01:08Z</time>
      </trkpt>
      <trkpt lat="43.82361" lon="4.8943">
        <ele>40.99</ele>
        <time>2015-04-17T14:01:27Z</time>
      </trkpt>
      <trkpt lat="43.82351" lon="4.89428">
        <ele>40.99</ele>
        <time>2015-04-17T14:01:41Z</time>
      </trkpt>
      <trkpt lat="43.82346" lon="4.89424">
        <ele>40.99</ele>
        <time>2015-04-17T14:01:55Z</time>
      </trkpt>
      <trkpt lat="43.82346" lon="4.89421">
        <ele>40.51</ele>
        <time>2015-04-17T14:02:12Z</time>
      </trkpt>
      <trkpt lat="43.82348" lon="4.89419">
        <ele>40.99</ele>
        <time>2015-04-17T14:02:27Z</time>
      </trkpt>
      <trkpt lat="43.82349" lon="4.89417">
        <ele>40.51</ele>
        <time>2015-04-17T14:02:46Z</time>
      </trkpt>
      <trkpt lat="43.82346" lon="4.89417">
        <ele>40.51</ele>
        <time>2015-04-17T14:03:10Z</time>
      </trkpt>
      <trkpt lat="43.82351" lon="4.89414">
        <ele>40.03</ele>
        <time>2015-04-17T14:03:33Z</time>
      </trkpt>
      <trkpt lat="43.82356" lon="4.89415">
        <ele>40.03</ele>
        <time>2015-04-17T14:04:01Z</time>
      </trkpt>
      <trkpt lat="43.82357" lon="4.89418">
        <ele>40.03</ele>
        <time>2015-04-17T14:04:21Z</time>
      </trkpt>
      <trkpt lat="43.82355" lon="4.89421">
        <ele>40.03</ele>
        <time>2015-04-17T14:04:44Z</time>
      </trkpt>
      <trkpt lat="43.82354" lon="4.89424">
        <ele>40.03</ele>
        <time>2015-04-17T14:05:13Z</time>
      </trkpt>
      <trkpt lat="43.82354" lon="4.89423">
        <ele>40.03</ele>
        <time>2015-04-17T14:05:34Z</time>
      </trkpt>
      <trkpt lat="43.82354" lon="4.8942">
        <ele>40.03</ele>
        <time>2015-04-17T14:05:57Z</time>
      </trkpt>
      <trkpt lat="43.82359" lon="4.89415">
        <ele>40.03</ele>
        <time>2015-04-17T14:06:21Z</time>
      </trkpt>
      <trkpt lat="43.82365" lon="4.89415">
        <ele>40.03</ele>
        <time>2015-04-17T14:06:53Z</time>
      </trkpt>
      <trkpt lat="43.82361" lon="4.89423">
        <ele>40.51</ele>
        <time>2015-04-17T14:07:11Z</time>
      </trkpt>
      <trkpt lat="43.82356" lon="4.89427">
        <ele>40.99</ele>
        <time>2015-04-17T14:07:23Z</time>
      </trkpt>
      <trkpt lat="43.82351" lon="4.89427">
        <ele>40.51</ele>
        <time>2015-04-17T14:07:45Z</time>
      </trkpt>
      <trkpt lat="43.82348" lon="4.8942">
        <ele>40.51</ele>
        <time>2015-04-17T14:08:01Z</time>
      </trkpt>
      <trkpt lat="43.82352" lon="4.89419">
        <ele>40.51</ele>
        <time>2015-04-17T14:08:24Z</time>
      </trkpt>
      <trkpt lat="43.82351" lon="4.89419">
        <ele>40.99</ele>
        <time>2015-04-17T14:08:40Z</time>
      </trkpt>
      <trkpt lat="43.82353" lon="4.89415">
        <ele>40.99</ele>
        <time>2015-04-17T14:09:00Z</time>
      </trkpt>
      <trkpt lat="43.82354" lon="4.89417">
        <ele>40.99</ele>
        <time>2015-04-17T14:09:29Z</time>
      </trkpt>
      <trkpt lat="43.82357" lon="4.89419">
        <ele>40.99</ele>
        <time>2015-04-17T14:09:47Z</time>
      </trkpt>
      <trkpt lat="43.82354" lon="4.89419">
        <ele>40.99</ele>
        <time>2015-04-17T14:10:01Z</time>
      </trkpt>
      <trkpt lat="43.82356" lon="4.89416">
        <ele>41.47</ele>
        <time>2015-04-17T14:10:17Z</time>
      </trkpt>
      <trkpt lat="43.82357" lon="4.89414">
        <ele>41.47</ele>
        <time>2015-04-17T14:10:43Z</time>
      </trkpt>
      <trkpt lat="43.82363" lon="4.89418">
        <ele>41.47</ele>
        <time>2015-04-17T14:11:04Z</time>
      </trkpt>
      <trkpt lat="43.82367" lon="4.89419">
        <ele>41.95</ele>
        <time>2015-04-17T14:11:28Z</time>
      </trkpt>
      <trkpt lat="43.82362" lon="4.89419">
        <ele>41.95</ele>
        <time>2015-04-17T14:11:46Z</time>
      </trkpt>
      <trkpt lat="43.82359" lon="4.89417">
        <ele>41.95</ele>
        <time>2015-04-17T14:12:00Z</time>
      </trkpt>
      <trkpt lat="43.8236" lon="4.89415">
        <ele>41.95</ele>
        <time>2015-04-17T14:12:20Z</time>
      </trkpt>
      <trkpt lat="43.82359" lon="4.89418">
        <ele>41.95</ele>
        <time>2015-04-17T14:12:47Z</time>
      </trkpt>
      <trkpt lat="43.82355" lon="4.8942">
        <ele>41.95</ele>
        <time>2015-04-17T14:13:14Z</time>
      </trkpt>
      <trkpt lat="43.82353" lon="4.89421">
        <ele>41.47</ele>
        <time>2015-04-17T14:13:37Z</time>
      </trkpt>
      <trkpt lat="43.82351" lon="4.89426">
        <ele>41.95</ele>
        <time>2015-04-17T14:14:05Z</time>
      </trkpt>
      <trkpt lat="43.82352" lon="4.8942">
        <ele>41.95</ele>
        <time>2015-04-17T14:14:37Z</time>
      </trkpt>
      <trkpt lat="43.82355" lon="4.89421">
        <ele>41.95</ele>
        <time>2015-04-17T14:14:57Z</time>
      </trkpt>
      <trkpt lat="43.82353" lon="4.89425">
        <ele>41.95</ele>
        <time>2015-04-17T14:15:16Z</time>
      </trkpt>
      <trkpt lat="43.82353" lon="4.89425">
        <ele>41.95</ele>
        <time>2015-04-17T14:15:35Z</time>
      </trkpt>
      <trkpt lat="43.82352" lon="4.89427">
        <ele>42.44</ele>
        <time>2015-04-17T14:15:53Z</time>
      </trkpt>
      <trkpt lat="43.82351" lon="4.89423">
        <ele>42.44</ele>
        <time>2015-04-17T14:16:11Z</time>
      </trkpt>
      <trkpt lat="43.82352" lon="4.89413">
        <ele>42.44</ele>
        <time>2015-04-17T14:16:42Z</time>
      </trkpt>
      <trkpt lat="43.82351" lon="4.89419">
        <ele>42.92</ele>
        <time>2015-04-17T14:16:53Z</time>
      </trkpt>
      <trkpt lat="43.8235" lon="4.89425">
        <ele>42.92</ele>
        <time>2015-04-17T14:17:10Z</time>
      </trkpt>
      <trkpt lat="43.82349" lon="4.89428">
        <ele>42.92</ele>
        <time>2015-04-17T14:17:23Z</time>
      </trkpt>
      <trkpt lat="43.8235" lon="4.89422">
        <ele>43.4</ele>
        <time>2015-04-17T14:17:39Z</time>
      </trkpt>
      <trkpt lat="43.82354" lon="4.89422">
        <ele>43.4</ele>
        <time>2015-04-17T14:17:51Z</time>
      </trkpt>
      <trkpt lat="43.82349" lon="4.89426">
        <ele>43.4</ele>
        <time>2015-04-17T14:17:57Z</time>
      </trkpt>
      <trkpt lat="43.82343" lon="4.89427">
        <ele>43.4</ele>
        <time>2015-04-17T14:18:03Z</time>
      </trkpt>
      <trkpt lat="43.82322" lon="4.89425">
        <ele>43.88</ele>
        <time>2015-04-17T14:18:21Z</time>
      </trkpt>
      <trkpt lat="43.82296" lon="4.89416">
        <ele>43.88</ele>
        <time>2015-04-17T14:18:41Z</time>
      </trkpt>
      <trkpt lat="43.82276" lon="4.89413">
        <ele>43.4</ele>
        <time>2015-04-17T14:18:56Z</time>
      </trkpt>
      <trkpt lat="43.82253" lon="4.89407">
        <ele>43.88</ele>
        <time>2015-04-17T14:19:14Z</time>
      </trkpt>
      <trkpt lat="43.82228" lon="4.89402">
        <ele>43.88</ele>
        <time>2015-04-17T14:19:33Z</time>
      </trkpt>
      <trkpt lat="43.82202" lon="4.89394">
        <ele>43.88</ele>
        <time>2015-04-17T14:19:54Z</time>
      </trkpt>
      <trkpt lat="43.82173" lon="4.89387">
        <ele>43.88</ele>
        <time>2015-04-17T14:20:17Z</time>
      </trkpt>
      <trkpt lat="43.8215" lon="4.89382">
        <ele>43.88</ele>
        <time>2015-04-17T14:20:35Z</time>
      </trkpt>
      <trkpt lat="43.82128" lon="4.89376">
        <ele>43.88</ele>
        <time>2015-04-17T14:20:52Z</time>
      </trkpt>
      <trkpt lat="43.82098" lon="4.89366">
        <ele>43.4</ele>
        <time>2015-04-17T14:21:14Z</time>
      </trkpt>
      <trkpt lat="43.82064" lon="4.89356">
        <ele>43.4</ele>
        <time>2015-04-17T14:21:38Z</time>
      </trkpt>
      <trkpt lat="43.82034" lon="4.89347">
        <ele>43.4</ele>
        <time>2015-04-17T14:21:56Z</time>
      </trkpt>
      <trkpt lat="43.82005" lon="4.8934">
        <ele>43.4</ele>
        <time>2015-04-17T14:22:16Z</time>
      </trkpt>
      <trkpt lat="43.81977" lon="4.89338">
        <ele>43.4</ele>
        <time>2015-04-17T14:22:34Z</time>
      </trkpt>
      <trkpt lat="43.81948" lon="4.8933">
        <ele>44.36</ele>
        <time>2015-04-17T14:22:54Z</time>
      </trkpt>
      <trkpt lat="43.81945" lon="4.89314">
        <ele>44.84</ele>
        <time>2015-04-17T14:23:03Z</time>
      </trkpt>
      <trkpt lat="43.81946" lon="4.89303">
        <ele>44.84</ele>
        <time>2015-04-17T14:23:20Z</time>
      </trkpt>
      <trkpt lat="43.8195" lon="4.8929">
        <ele>44.36</ele>
        <time>2015-04-17T14:23:43Z</time>
      </trkpt>
      <trkpt lat="43.8195" lon="4.89248">
        <ele>44.36</ele>
        <time>2015-04-17T14:23:57Z</time>
      </trkpt>
      <trkpt lat="43.81953" lon="4.89183">
        <ele>44.36</ele>
        <time>2015-04-17T14:24:16Z</time>
      </trkpt>
      <trkpt lat="43.81959" lon="4.89124">
        <ele>44.36</ele>
        <time>2015-04-17T14:24:31Z</time>
      </trkpt>
      <trkpt lat="43.8197" lon="4.89047">
        <ele>44.84</ele>
        <time>2015-04-17T14:24:49Z</time>
      </trkpt>
      <trkpt lat="43.81982" lon="4.88983">
        <ele>43.88</ele>
        <time>2015-04-17T14:25:05Z</time>
      </trkpt>
      <trkpt lat="43.82" lon="4.88922">
        <ele>45.32</ele>
        <time>2015-04-17T14:25:22Z</time>
      </trkpt>
      <trkpt lat="43.82015" lon="4.88857">
        <ele>45.32</ele>
        <time>2015-04-17T14:25:37Z</time>
      </trkpt>
      <trkpt lat="43.82036" lon="4.8878">
        <ele>45.32</ele>
        <time>2015-04-17T14:25:55Z</time>
      </trkpt>
      <trkpt lat="43.82049" lon="4.88684">
        <ele>44.84</ele>
        <time>2015-04-17T14:26:16Z</time>
      </trkpt>
      <trkpt lat="43.82052" lon="4.88582">
        <ele>45.8</ele>
        <time>2015-04-17T14:26:41Z</time>
      </trkpt>
      <trkpt lat="43.82059" lon="4.88498">
        <ele>46.76</ele>
        <time>2015-04-17T14:27:05Z</time>
      </trkpt>
      <trkpt lat="43.82067" lon="4.88416">
        <ele>48.2</ele>
        <time>2015-04-17T14:27:28Z</time>
      </trkpt>
      <trkpt lat="43.82077" lon="4.88331">
        <ele>48.68</ele>
        <time>2015-04-17T14:27:49Z</time>
      </trkpt>
      <trkpt lat="43.8209" lon="4.88213">
        <ele>51.09</ele>
        <time>2015-04-17T14:28:19Z</time>
      </trkpt>
      <trkpt lat="43.82098" lon="4.88123">
        <ele>51.57</ele>
        <time>2015-04-17T14:28:43Z</time>
      </trkpt>
      <trkpt lat="43.82104" lon="4.88084">
        <ele>52.53</ele>
        <time>2015-04-17T14:28:55Z</time>
      </trkpt>
      <trkpt lat="43.82105" lon="4.88081">
        <ele>52.53</ele>
        <time>2015-04-17T14:28:56Z</time>
      </trkpt>
      <trkpt lat="43.82105" lon="4.88078">
        <ele>53.01</ele>
        <time>2015-04-17T14:28:57Z</time>
      </trkpt>
      <trkpt lat="43.82106" lon="4.88077">
        <ele>53.01</ele>
        <time>2015-04-17T14:28:58Z</time>
      </trkpt>
      <trkpt lat="43.82107" lon="4.88075">
        <ele>53.01</ele>
        <time>2015-04-17T14:28:59Z</time>
      </trkpt>
      <trkpt lat="43.82108" lon="4.88073">
        <ele>53.01</ele>
        <time>2015-04-17T14:29:00Z</time>
      </trkpt>
      <trkpt lat="43.82109" lon="4.88071">
        <ele>53.49</ele>
        <time>2015-04-17T14:29:02Z</time>
      </trkpt>
      <trkpt lat="43.8211" lon="4.88073">
        <ele>53.97</ele>
        <time>2015-04-17T14:29:12Z</time>
      </trkpt>
      <trkpt lat="43.82109" lon="4.88072">
        <ele>54.45</ele>
        <time>2015-04-17T14:29:13Z</time>
      </trkpt>
      <trkpt lat="43.82108" lon="4.8807">
        <ele>54.45</ele>
        <time>2015-04-17T14:29:14Z</time>
      </trkpt>
      <trkpt lat="43.82107" lon="4.88068">
        <ele>54.93</ele>
        <time>2015-04-17T14:29:15Z</time>
      </trkpt>
      <trkpt lat="43.82104" lon="4.88058">
        <ele>54.45</ele>
        <time>2015-04-17T14:29:19Z</time>
      </trkpt>
      <trkpt lat="43.82104" lon="4.88054">
        <ele>53.49</ele>
        <time>2015-04-17T14:29:21Z</time>
      </trkpt>
      <trkpt lat="43.82104" lon="4.88051">
        <ele>53.49</ele>
        <time>2015-04-17T14:29:22Z</time>
      </trkpt>
      <trkpt lat="43.82105" lon="4.88049">
        <ele>53.97</ele>
        <time>2015-04-17T14:29:23Z</time>
      </trkpt>
      <trkpt lat="43.82106" lon="4.88046">
        <ele>53.97</ele>
        <time>2015-04-17T14:29:24Z</time>
      </trkpt>
      <trkpt lat="43.82108" lon="4.88043">
        <ele>53.97</ele>
        <time>2015-04-17T14:29:25Z</time>
      </trkpt>
      <trkpt lat="43.82109" lon="4.8804">
        <ele>53.97</ele>
        <time>2015-04-17T14:29:26Z</time>
      </trkpt>
      <trkpt lat="43.82116" lon="4.88029">
        <ele>54.93</ele>
        <time>2015-04-17T14:29:37Z</time>
      </trkpt>
      <trkpt lat="43.82125" lon="4.8801">
        <ele>54.93</ele>
        <time>2015-04-17T14:29:53Z</time>
      </trkpt>
      <trkpt lat="43.82143" lon="4.87988">
        <ele>57.34</ele>
        <time>2015-04-17T14:30:07Z</time>
      </trkpt>
      <trkpt lat="43.82162" lon="4.87954">
        <ele>57.82</ele>
        <time>2015-04-17T14:30:26Z</time>
      </trkpt>
      <trkpt lat="43.82182" lon="4.87923">
        <ele>59.26</ele>
        <time>2015-04-17T14:30:44Z</time>
      </trkpt>
      <trkpt lat="43.82195" lon="4.87897">
        <ele>61.18</ele>
        <time>2015-04-17T14:31:00Z</time>
      </trkpt>
      <trkpt lat="43.82208" lon="4.87866">
        <ele>63.1</ele>
        <time>2015-04-17T14:31:17Z</time>
      </trkpt>
      <trkpt lat="43.82224" lon="4.87827">
        <ele>64.55</ele>
        <time>2015-04-17T14:31:36Z</time>
      </trkpt>
      <trkpt lat="43.82239" lon="4.87794">
        <ele>66.47</ele>
        <time>2015-04-17T14:31:56Z</time>
      </trkpt>
      <trkpt lat="43.82258" lon="4.87762">
        <ele>68.87</ele>
        <time>2015-04-17T14:32:14Z</time>
      </trkpt>
      <trkpt lat="43.82276" lon="4.87729">
        <ele>72.24</ele>
        <time>2015-04-17T14:32:27Z</time>
      </trkpt>
      <trkpt lat="43.82291" lon="4.87697">
        <ele>75.12</ele>
        <time>2015-04-17T14:32:43Z</time>
      </trkpt>
      <trkpt lat="43.82305" lon="4.87672">
        <ele>77.04</ele>
        <time>2015-04-17T14:32:58Z</time>
      </trkpt>
      <trkpt lat="43.82336" lon="4.87656">
        <ele>78.97</ele>
        <time>2015-04-17T14:33:17Z</time>
      </trkpt>
      <trkpt lat="43.82365" lon="4.87628">
        <ele>79.93</ele>
        <time>2015-04-17T14:33:37Z</time>
      </trkpt>
      <trkpt lat="43.82386" lon="4.87603">
        <ele>80.89</ele>
        <time>2015-04-17T14:33:55Z</time>
      </trkpt>
      <trkpt lat="43.82408" lon="4.87572">
        <ele>80.89</ele>
        <time>2015-04-17T14:34:13Z</time>
      </trkpt>
      <trkpt lat="43.82429" lon="4.87547">
        <ele>82.81</ele>
        <time>2015-04-17T14:34:29Z</time>
      </trkpt>
      <trkpt lat="43.82449" lon="4.87517">
        <ele>84.25</ele>
        <time>2015-04-17T14:34:49Z</time>
      </trkpt>
      <trkpt lat="43.8247" lon="4.87488">
        <ele>85.21</ele>
        <time>2015-04-17T14:35:09Z</time>
      </trkpt>
      <trkpt lat="43.82493" lon="4.87458">
        <ele>85.69</ele>
        <time>2015-04-17T14:35:28Z</time>
      </trkpt>
      <trkpt lat="43.82514" lon="4.87423">
        <ele>86.18</ele>
        <time>2015-04-17T14:35:47Z</time>
      </trkpt>
      <trkpt lat="43.82538" lon="4.8739">
        <ele>87.14</ele>
        <time>2015-04-17T14:36:10Z</time>
      </trkpt>
      <trkpt lat="43.82557" lon="4.87362">
        <ele>86.66</ele>
        <time>2015-04-17T14:36:27Z</time>
      </trkpt>
      <trkpt lat="43.82578" lon="4.87337">
        <ele>86.66</ele>
        <time>2015-04-17T14:36:46Z</time>
      </trkpt>
      <trkpt lat="43.82602" lon="4.8731">
        <ele>87.14</ele>
        <time>2015-04-17T14:37:07Z</time>
      </trkpt>
      <trkpt lat="43.82627" lon="4.87282">
        <ele>87.14</ele>
        <time>2015-04-17T14:37:30Z</time>
      </trkpt>
      <trkpt lat="43.82651" lon="4.87254">
        <ele>87.62</ele>
        <time>2015-04-17T14:37:51Z</time>
      </trkpt>
      <trkpt lat="43.82669" lon="4.87229">
        <ele>87.14</ele>
        <time>2015-04-17T14:38:08Z</time>
      </trkpt>
      <trkpt lat="43.82683" lon="4.8721">
        <ele>86.18</ele>
        <time>2015-04-17T14:38:22Z</time>
      </trkpt>
      <trkpt lat="43.82697" lon="4.87192">
        <ele>86.66</ele>
        <time>2015-04-17T14:38:35Z</time>
      </trkpt>
      <trkpt lat="43.8271" lon="4.87177">
        <ele>86.18</ele>
        <time>2015-04-17T14:38:47Z</time>
      </trkpt>
      <trkpt lat="43.82727" lon="4.87155">
        <ele>87.62</ele>
        <time>2015-04-17T14:39:03Z</time>
      </trkpt>
      <trkpt lat="43.82749" lon="4.8713">
        <ele>87.62</ele>
        <time>2015-04-17T14:39:22Z</time>
      </trkpt>
      <trkpt lat="43.82754" lon="4.87124">
        <ele>87.14</ele>
        <time>2015-04-17T14:39:26Z</time>
      </trkpt>
      <trkpt lat="43.82766" lon="4.87109">
        <ele>86.66</ele>
        <time>2015-04-17T14:39:36Z</time>
      </trkpt>
      <trkpt lat="43.82784" lon="4.87088">
        <ele>87.14</ele>
        <time>2015-04-17T14:39:52Z</time>
      </trkpt>
      <trkpt lat="43.82797" lon="4.87071">
        <ele>88.1</ele>
        <time>2015-04-17T14:40:04Z</time>
      </trkpt>
      <trkpt lat="43.82815" lon="4.87053">
        <ele>88.1</ele>
        <time>2015-04-17T14:40:19Z</time>
      </trkpt>
      <trkpt lat="43.82838" lon="4.87025">
        <ele>87.62</ele>
        <time>2015-04-17T14:40:39Z</time>
      </trkpt>
      <trkpt lat="43.82856" lon="4.87005">
        <ele>87.62</ele>
        <time>2015-04-17T14:40:54Z</time>
      </trkpt>
      <trkpt lat="43.8287" lon="4.86991">
        <ele>88.1</ele>
        <time>2015-04-17T14:41:06Z</time>
      </trkpt>
      <trkpt lat="43.82892" lon="4.86964">
        <ele>88.1</ele>
        <time>2015-04-17T14:41:25Z</time>
      </trkpt>
      <trkpt lat="43.82912" lon="4.86943">
        <ele>88.1</ele>
        <time>2015-04-17T14:41:41Z</time>
      </trkpt>
      <trkpt lat="43.82931" lon="4.86921">
        <ele>88.1</ele>
        <time>2015-04-17T14:41:58Z</time>
      </trkpt>
      <trkpt lat="43.82957" lon="4.86894">
        <ele>88.1</ele>
        <time>2015-04-17T14:42:19Z</time>
      </trkpt>
      <trkpt lat="43.82981" lon="4.86863">
        <ele>88.58</ele>
        <time>2015-04-17T14:42:39Z</time>
      </trkpt>
      <trkpt lat="43.82975" lon="4.86855">
        <ele>88.58</ele>
        <time>2015-04-17T14:42:46Z</time>
      </trkpt>
      <trkpt lat="43.8297" lon="4.86853">
        <ele>88.58</ele>
        <time>2015-04-17T14:43:00Z</time>
      </trkpt>
      <trkpt lat="43.82971" lon="4.86856">
        <ele>87.62</ele>
        <time>2015-04-17T14:43:20Z</time>
      </trkpt>
      <trkpt lat="43.82976" lon="4.86855">
        <ele>88.1</ele>
        <time>2015-04-17T14:43:29Z</time>
      </trkpt>
      <trkpt lat="43.82978" lon="4.86856">
        <ele>88.58</ele>
        <time>2015-04-17T14:43:31Z</time>
      </trkpt>
      <trkpt lat="43.82979" lon="4.86856">
        <ele>88.58</ele>
        <time>2015-04-17T14:43:42Z</time>
      </trkpt>
      <trkpt lat="43.82978" lon="4.86856">
        <ele>88.58</ele>
        <time>2015-04-17T14:43:56Z</time>
      </trkpt>
      <trkpt lat="43.8298" lon="4.86858">
        <ele>88.58</ele>
        <time>2015-04-17T14:44:10Z</time>
      </trkpt>
      <trkpt lat="43.8298" lon="4.86858">
        <ele>88.1</ele>
        <time>2015-04-17T14:44:26Z</time>
      </trkpt>
      <trkpt lat="43.8298" lon="4.86858">
        <ele>88.1</ele>
        <time>2015-04-17T14:44:43Z</time>
      </trkpt>
      <trkpt lat="43.8298" lon="4.86859">
        <ele>88.1</ele>
        <time>2015-04-17T14:45:05Z</time>
      </trkpt>
      <trkpt lat="43.8298" lon="4.86859">
        <ele>88.58</ele>
        <time>2015-04-17T14:45:13Z</time>
      </trkpt>
      <trkpt lat="43.82975" lon="4.86855">
        <ele>88.1</ele>
        <time>2015-04-17T14:45:24Z</time>
      </trkpt>
      <trkpt lat="43.82975" lon="4.86854">
        <ele>88.1</ele>
        <time>2015-04-17T14:45:42Z</time>
      </trkpt>
      <trkpt lat="43.82975" lon="4.86853">
        <ele>87.62</ele>
        <time>2015-04-17T14:46:01Z</time>
      </trkpt>
      <trkpt lat="43.82976" lon="4.86853">
        <ele>87.62</ele>
        <time>2015-04-17T14:46:15Z</time>
      </trkpt>
      <trkpt lat="43.82974" lon="4.86853">
        <ele>87.62</ele>
        <time>2015-04-17T14:46:38Z</time>
      </trkpt>
      <trkpt lat="43.82974" lon="4.86853">
        <ele>87.62</ele>
        <time>2015-04-17T14:46:54Z</time>
      </trkpt>
      <trkpt lat="43.82975" lon="4.86854">
        <ele>88.1</ele>
        <time>2015-04-17T14:47:15Z</time>
      </trkpt>
      <trkpt lat="43.82974" lon="4.86854">
        <ele>88.1</ele>
        <time>2015-04-17T14:47:29Z</time>
      </trkpt>
      <trkpt lat="43.82976" lon="4.86854">
        <ele>87.62</ele>
        <time>2015-04-17T14:47:47Z</time>
      </trkpt>
      <trkpt lat="43.82972" lon="4.86852">
        <ele>88.1</ele>
        <time>2015-04-17T14:47:58Z</time>
      </trkpt>
      <trkpt lat="43.82973" lon="4.86851">
        <ele>87.62</ele>
        <time>2015-04-17T14:48:20Z</time>
      </trkpt>
      <trkpt lat="43.82972" lon="4.86852">
        <ele>88.1</ele>
        <time>2015-04-17T14:48:36Z</time>
      </trkpt>
      <trkpt lat="43.8297" lon="4.86851">
        <ele>87.62</ele>
        <time>2015-04-17T14:48:48Z</time>
      </trkpt>
      <trkpt lat="43.82971" lon="4.86853">
        <ele>88.1</ele>
        <time>2015-04-17T14:49:10Z</time>
      </trkpt>
      <trkpt lat="43.8297" lon="4.86852">
        <ele>88.1</ele>
        <time>2015-04-17T14:49:24Z</time>
      </trkpt>
      <trkpt lat="43.82968" lon="4.86851">
        <ele>88.1</ele>
        <time>2015-04-17T14:49:27Z</time>
      </trkpt>
      <trkpt lat="43.82957" lon="4.86845">
        <ele>88.1</ele>
        <time>2015-04-17T14:49:45Z</time>
      </trkpt>
      <trkpt lat="43.82937" lon="4.86836">
        <ele>88.1</ele>
        <time>2015-04-17T14:50:01Z</time>
      </trkpt>
      <trkpt lat="43.82922" lon="4.8683">
        <ele>87.62</ele>
        <time>2015-04-17T14:50:13Z</time>
      </trkpt>
      <trkpt lat="43.82897" lon="4.86816">
        <ele>88.1</ele>
        <time>2015-04-17T14:50:32Z</time>
      </trkpt>
      <trkpt lat="43.82896" lon="4.86817">
        <ele>88.1</ele>
        <time>2015-04-17T14:50:47Z</time>
      </trkpt>
      <trkpt lat="43.82894" lon="4.86816">
        <ele>88.1</ele>
        <time>2015-04-17T14:51:09Z</time>
      </trkpt>
      <trkpt lat="43.8288" lon="4.86809">
        <ele>88.1</ele>
        <time>2015-04-17T14:51:22Z</time>
      </trkpt>
      <trkpt lat="43.82854" lon="4.86801">
        <ele>88.1</ele>
        <time>2015-04-17T14:51:42Z</time>
      </trkpt>
      <trkpt lat="43.82824" lon="4.86787">
        <ele>87.62</ele>
        <time>2015-04-17T14:52:05Z</time>
      </trkpt>
      <trkpt lat="43.82796" lon="4.86776">
        <ele>87.14</ele>
        <time>2015-04-17T14:52:25Z</time>
      </trkpt>
      <trkpt lat="43.82767" lon="4.86766">
        <ele>87.62</ele>
        <time>2015-04-17T14:52:47Z</time>
      </trkpt>
      <trkpt lat="43.82743" lon="4.86759">
        <ele>87.62</ele>
        <time>2015-04-17T14:53:04Z</time>
      </trkpt>
      <trkpt lat="43.82721" lon="4.86746">
        <ele>87.62</ele>
        <time>2015-04-17T14:53:20Z</time>
      </trkpt>
      <trkpt lat="43.82695" lon="4.86729">
        <ele>87.62</ele>
        <time>2015-04-17T14:53:41Z</time>
      </trkpt>
      <trkpt lat="43.82671" lon="4.86715">
        <ele>87.14</ele>
        <time>2015-04-17T14:54:00Z</time>
      </trkpt>
      <trkpt lat="43.82642" lon="4.86695">
        <ele>87.14</ele>
        <time>2015-04-17T14:54:23Z</time>
      </trkpt>
      <trkpt lat="43.82627" lon="4.86674">
        <ele>87.14</ele>
        <time>2015-04-17T14:54:39Z</time>
      </trkpt>
      <trkpt lat="43.82623" lon="4.86635">
        <ele>87.14</ele>
        <time>2015-04-17T14:54:57Z</time>
      </trkpt>
      <trkpt lat="43.82622" lon="4.8662">
        <ele>87.14</ele>
        <time>2015-04-17T14:55:09Z</time>
      </trkpt>
      <trkpt lat="43.82623" lon="4.86619">
        <ele>87.14</ele>
        <time>2015-04-17T14:55:25Z</time>
      </trkpt>
      <trkpt lat="43.82621" lon="4.86607">
        <ele>87.14</ele>
        <time>2015-04-17T14:55:32Z</time>
      </trkpt>
      <trkpt lat="43.8262" lon="4.866">
        <ele>87.14</ele>
        <time>2015-04-17T14:55:50Z</time>
      </trkpt>
      <trkpt lat="43.82617" lon="4.86578">
        <ele>87.14</ele>
        <time>2015-04-17T14:56:07Z</time>
      </trkpt>
      <trkpt lat="43.82618" lon="4.86579">
        <ele>87.14</ele>
        <time>2015-04-17T14:56:27Z</time>
      </trkpt>
      <trkpt lat="43.82613" lon="4.86542">
        <ele>86.66</ele>
        <time>2015-04-17T14:56:45Z</time>
      </trkpt>
      <trkpt lat="43.82607" lon="4.86506">
        <ele>86.66</ele>
        <time>2015-04-17T14:57:02Z</time>
      </trkpt>
      <trkpt lat="43.82604" lon="4.86493">
        <ele>87.14</ele>
        <time>2015-04-17T14:57:09Z</time>
      </trkpt>
      <trkpt lat="43.82602" lon="4.86461">
        <ele>87.14</ele>
        <time>2015-04-17T14:57:25Z</time>
      </trkpt>
      <trkpt lat="43.82598" lon="4.86431">
        <ele>87.14</ele>
        <time>2015-04-17T14:57:40Z</time>
      </trkpt>
      <trkpt lat="43.82594" lon="4.86394">
        <ele>87.14</ele>
        <time>2015-04-17T14:57:59Z</time>
      </trkpt>
      <trkpt lat="43.82587" lon="4.86351">
        <ele>87.14</ele>
        <time>2015-04-17T14:58:21Z</time>
      </trkpt>
      <trkpt lat="43.82583" lon="4.86309">
        <ele>86.66</ele>
        <time>2015-04-17T14:58:43Z</time>
      </trkpt>
      <trkpt lat="43.82582" lon="4.86276">
        <ele>85.69</ele>
        <time>2015-04-17T14:59:00Z</time>
      </trkpt>
      <trkpt lat="43.82577" lon="4.8623">
        <ele>86.66</ele>
        <time>2015-04-17T14:59:24Z</time>
      </trkpt>
      <trkpt lat="43.82572" lon="4.86183">
        <ele>86.66</ele>
        <time>2015-04-17T14:59:49Z</time>
      </trkpt>
      <trkpt lat="43.82568" lon="4.86135">
        <ele>87.14</ele>
        <time>2015-04-17T15:00:13Z</time>
      </trkpt>
      <trkpt lat="43.82567" lon="4.861">
        <ele>87.14</ele>
        <time>2015-04-17T15:00:31Z</time>
      </trkpt>
      <trkpt lat="43.82568" lon="4.86099">
        <ele>87.14</ele>
        <time>2015-04-17T15:00:32Z</time>
      </trkpt>
      <trkpt lat="43.82571" lon="4.86096">
        <ele>86.66</ele>
        <time>2015-04-17T15:00:34Z</time>
      </trkpt>
      <trkpt lat="43.82573" lon="4.86095">
        <ele>86.66</ele>
        <time>2015-04-17T15:00:35Z</time>
      </trkpt>
      <trkpt lat="43.82575" lon="4.86095">
        <ele>86.66</ele>
        <time>2015-04-17T15:00:36Z</time>
      </trkpt>
      <trkpt lat="43.82578" lon="4.86095">
        <ele>86.66</ele>
        <time>2015-04-17T15:00:37Z</time>
      </trkpt>
      <trkpt lat="43.82581" lon="4.86095">
        <ele>86.66</ele>
        <time>2015-04-17T15:00:38Z</time>
      </trkpt>
      <trkpt lat="43.82634" lon="4.861">
        <ele>86.18</ele>
        <time>2015-04-17T15:00:56Z</time>
      </trkpt>
      <trkpt lat="43.82693" lon="4.86102">
        <ele>85.69</ele>
        <time>2015-04-17T15:01:14Z</time>
      </trkpt>
      <trkpt lat="43.82741" lon="4.861">
        <ele>85.69</ele>
        <time>2015-04-17T15:01:31Z</time>
      </trkpt>
      <trkpt lat="43.828" lon="4.86091">
        <ele>86.18</ele>
        <time>2015-04-17T15:01:52Z</time>
      </trkpt>
      <trkpt lat="43.82865" lon="4.86077">
        <ele>87.14</ele>
        <time>2015-04-17T15:02:15Z</time>
      </trkpt>
      <trkpt lat="43.82918" lon="4.86058">
        <ele>87.14</ele>
        <time>2015-04-17T15:02:33Z</time>
      </trkpt>
      <trkpt lat="43.8298" lon="4.86036">
        <ele>87.14</ele>
        <time>2015-04-17T15:02:54Z</time>
      </trkpt>
      <trkpt lat="43.83039" lon="4.86002">
        <ele>85.69</ele>
        <time>2015-04-17T15:03:13Z</time>
      </trkpt>
      <trkpt lat="43.83085" lon="4.85955">
        <ele>86.18</ele>
        <time>2015-04-17T15:03:32Z</time>
      </trkpt>
      <trkpt lat="43.8312" lon="4.85914">
        <ele>86.18</ele>
        <time>2015-04-17T15:03:48Z</time>
      </trkpt>
      <trkpt lat="43.8316" lon="4.85857">
        <ele>87.14</ele>
        <time>2015-04-17T15:04:07Z</time>
      </trkpt>
      <trkpt lat="43.832" lon="4.85812">
        <ele>87.62</ele>
        <time>2015-04-17T15:04:24Z</time>
      </trkpt>
      <trkpt lat="43.83236" lon="4.8581">
        <ele>87.62</ele>
        <time>2015-04-17T15:04:40Z</time>
      </trkpt>
      <trkpt lat="43.83277" lon="4.85854">
        <ele>87.14</ele>
        <time>2015-04-17T15:05:00Z</time>
      </trkpt>
      <trkpt lat="43.83287" lon="4.85865">
        <ele>86.66</ele>
        <time>2015-04-17T15:05:15Z</time>
      </trkpt>
      <trkpt lat="43.83288" lon="4.85866">
        <ele>86.66</ele>
        <time>2015-04-17T15:05:17Z</time>
      </trkpt>
      <trkpt lat="43.83289" lon="4.85866">
        <ele>86.66</ele>
        <time>2015-04-17T15:05:18Z</time>
      </trkpt>
      <trkpt lat="43.83295" lon="4.85872">
        <ele>86.18</ele>
        <time>2015-04-17T15:05:32Z</time>
      </trkpt>
      <trkpt lat="43.83296" lon="4.85873">
        <ele>86.18</ele>
        <time>2015-04-17T15:05:33Z</time>
      </trkpt>
      <trkpt lat="43.83296" lon="4.85874">
        <ele>86.18</ele>
        <time>2015-04-17T15:05:34Z</time>
      </trkpt>
      <trkpt lat="43.83291" lon="4.85899">
        <ele>87.14</ele>
        <time>2015-04-17T15:05:47Z</time>
      </trkpt>
      <trkpt lat="43.83281" lon="4.85935">
        <ele>87.62</ele>
        <time>2015-04-17T15:06:05Z</time>
      </trkpt>
      <trkpt lat="43.83274" lon="4.86009">
        <ele>88.1</ele>
        <time>2015-04-17T15:06:24Z</time>
      </trkpt>
      <trkpt lat="43.83267" lon="4.86086">
        <ele>88.58</ele>
        <time>2015-04-17T15:06:44Z</time>
      </trkpt>
      <trkpt lat="43.8326" lon="4.8617">
        <ele>89.06</ele>
        <time>2015-04-17T15:07:03Z</time>
      </trkpt>
      <trkpt lat="43.83261" lon="4.86244">
        <ele>89.06</ele>
        <time>2015-04-17T15:07:20Z</time>
      </trkpt>
      <trkpt lat="43.8326" lon="4.8632">
        <ele>89.06</ele>
        <time>2015-04-17T15:07:39Z</time>
      </trkpt>
      <trkpt lat="43.8325" lon="4.86397">
        <ele>89.06</ele>
        <time>2015-04-17T15:07:57Z</time>
      </trkpt>
      <trkpt lat="43.83239" lon="4.86444">
        <ele>89.06</ele>
        <time>2015-04-17T15:08:11Z</time>
      </trkpt>
      <trkpt lat="43.83235" lon="4.86473">
        <ele>89.06</ele>
        <time>2015-04-17T15:08:23Z</time>
      </trkpt>
      <trkpt lat="43.83211" lon="4.86567">
        <ele>88.58</ele>
        <time>2015-04-17T15:08:45Z</time>
      </trkpt>
      <trkpt lat="43.83197" lon="4.86632">
        <ele>88.58</ele>
        <time>2015-04-17T15:09:01Z</time>
      </trkpt>
      <trkpt lat="43.83176" lon="4.86731">
        <ele>88.1</ele>
        <time>2015-04-17T15:09:26Z</time>
      </trkpt>
      <trkpt lat="43.83161" lon="4.86802">
        <ele>88.58</ele>
        <time>2015-04-17T15:09:44Z</time>
      </trkpt>
      <trkpt lat="43.83145" lon="4.86872">
        <ele>88.1</ele>
        <time>2015-04-17T15:10:02Z</time>
      </trkpt>
      <trkpt lat="43.83126" lon="4.8695">
        <ele>88.1</ele>
        <time>2015-04-17T15:10:22Z</time>
      </trkpt>
      <trkpt lat="43.83124" lon="4.87001">
        <ele>87.62</ele>
        <time>2015-04-17T15:10:38Z</time>
      </trkpt>
      <trkpt lat="43.83142" lon="4.87009">
        <ele>88.1</ele>
        <time>2015-04-17T15:10:50Z</time>
      </trkpt>
      <trkpt lat="43.83161" lon="4.87017">
        <ele>88.1</ele>
        <time>2015-04-17T15:11:05Z</time>
      </trkpt>
      <trkpt lat="43.83179" lon="4.87027">
        <ele>88.1</ele>
        <time>2015-04-17T15:11:19Z</time>
      </trkpt>
      <trkpt lat="43.83197" lon="4.87036">
        <ele>88.58</ele>
        <time>2015-04-17T15:11:34Z</time>
      </trkpt>
      <trkpt lat="43.83221" lon="4.87048">
        <ele>88.1</ele>
        <time>2015-04-17T15:11:52Z</time>
      </trkpt>
      <trkpt lat="43.83237" lon="4.87059">
        <ele>88.58</ele>
        <time>2015-04-17T15:12:04Z</time>
      </trkpt>
      <trkpt lat="43.83259" lon="4.87075">
        <ele>88.1</ele>
        <time>2015-04-17T15:12:22Z</time>
      </trkpt>
      <trkpt lat="43.83278" lon="4.8709">
        <ele>88.1</ele>
        <time>2015-04-17T15:12:37Z</time>
      </trkpt>
      <trkpt lat="43.83299" lon="4.87103">
        <ele>88.58</ele>
        <time>2015-04-17T15:12:53Z</time>
      </trkpt>
      <trkpt lat="43.83323" lon="4.87123">
        <ele>89.06</ele>
        <time>2015-04-17T15:13:12Z</time>
      </trkpt>
      <trkpt lat="43.83344" lon="4.87138">
        <ele>89.06</ele>
        <time>2015-04-17T15:13:29Z</time>
      </trkpt>
      <trkpt lat="43.83365" lon="4.87156">
        <ele>89.06</ele>
        <time>2015-04-17T15:13:47Z</time>
      </trkpt>
      <trkpt lat="43.83384" lon="4.8717">
        <ele>89.06</ele>
        <time>2015-04-17T15:14:02Z</time>
      </trkpt>
      <trkpt lat="43.8341" lon="4.87189">
        <ele>89.06</ele>
        <time>2015-04-17T15:14:23Z</time>
      </trkpt>
      <trkpt lat="43.8344" lon="4.87206">
        <ele>89.06</ele>
        <time>2015-04-17T15:14:43Z</time>
      </trkpt>
      <trkpt lat="43.83465" lon="4.87226">
        <ele>89.54</ele>
        <time>2015-04-17T15:15:04Z</time>
      </trkpt>
      <trkpt lat="43.83494" lon="4.87243">
        <ele>89.06</ele>
        <time>2015-04-17T15:15:26Z</time>
      </trkpt>
      <trkpt lat="43.8352" lon="4.87262">
        <ele>89.06</ele>
        <time>2015-04-17T15:15:46Z</time>
      </trkpt>
      <trkpt lat="43.83548" lon="4.87288">
        <ele>89.54</ele>
        <time>2015-04-17T15:16:09Z</time>
      </trkpt>
      <trkpt lat="43.83573" lon="4.87308">
        <ele>89.54</ele>
        <time>2015-04-17T15:16:28Z</time>
      </trkpt>
      <trkpt lat="43.83592" lon="4.87324">
        <ele>89.54</ele>
        <time>2015-04-17T15:16:45Z</time>
      </trkpt>
      <trkpt lat="43.83615" lon="4.87343">
        <ele>89.06</ele>
        <time>2015-04-17T15:17:04Z</time>
      </trkpt>
      <trkpt lat="43.8364" lon="4.87363">
        <ele>89.06</ele>
        <time>2015-04-17T15:17:24Z</time>
      </trkpt>
      <trkpt lat="43.83665" lon="4.87388">
        <ele>89.54</ele>
        <time>2015-04-17T15:17:45Z</time>
      </trkpt>
      <trkpt lat="43.83687" lon="4.8741">
        <ele>89.54</ele>
        <time>2015-04-17T15:18:04Z</time>
      </trkpt>
      <trkpt lat="43.83709" lon="4.87433">
        <ele>89.06</ele>
        <time>2015-04-17T15:18:21Z</time>
      </trkpt>
      <trkpt lat="43.83732" lon="4.87456">
        <ele>89.06</ele>
        <time>2015-04-17T15:18:40Z</time>
      </trkpt>
      <trkpt lat="43.83753" lon="4.87478">
        <ele>89.06</ele>
        <time>2015-04-17T15:18:58Z</time>
      </trkpt>
      <trkpt lat="43.83764" lon="4.87491">
        <ele>89.06</ele>
        <time>2015-04-17T15:19:09Z</time>
      </trkpt>
      <trkpt lat="43.83765" lon="4.87493">
        <ele>89.06</ele>
        <time>2015-04-17T15:19:10Z</time>
      </trkpt>
      <trkpt lat="43.83766" lon="4.87494">
        <ele>89.54</ele>
        <time>2015-04-17T15:19:11Z</time>
      </trkpt>
      <trkpt lat="43.83786" lon="4.87514">
        <ele>89.06</ele>
        <time>2015-04-17T15:19:28Z</time>
      </trkpt>
      <trkpt lat="43.83797" lon="4.87525">
        <ele>89.06</ele>
        <time>2015-04-17T15:19:38Z</time>
      </trkpt>
      <trkpt lat="43.83799" lon="4.87526">
        <ele>89.06</ele>
        <time>2015-04-17T15:19:39Z</time>
      </trkpt>
      <trkpt lat="43.83824" lon="4.87551">
        <ele>89.06</ele>
        <time>2015-04-17T15:19:57Z</time>
      </trkpt>
      <trkpt lat="43.83849" lon="4.87577">
        <ele>89.06</ele>
        <time>2015-04-17T15:20:16Z</time>
      </trkpt>
      <trkpt lat="43.83871" lon="4.87599">
        <ele>89.06</ele>
        <time>2015-04-17T15:20:35Z</time>
      </trkpt>
      <trkpt lat="43.83896" lon="4.87621">
        <ele>89.54</ele>
        <time>2015-04-17T15:20:51Z</time>
      </trkpt>
      <trkpt lat="43.83921" lon="4.87639">
        <ele>89.54</ele>
        <time>2015-04-17T15:21:10Z</time>
      </trkpt>
      <trkpt lat="43.83947" lon="4.87659">
        <ele>89.54</ele>
        <time>2015-04-17T15:21:29Z</time>
      </trkpt>
      <trkpt lat="43.83984" lon="4.87692">
        <ele>89.54</ele>
        <time>2015-04-17T15:21:47Z</time>
      </trkpt>
      <trkpt lat="43.84018" lon="4.87722">
        <ele>89.06</ele>
        <time>2015-04-17T15:22:03Z</time>
      </trkpt>
      <trkpt lat="43.84053" lon="4.87749">
        <ele>88.58</ele>
        <time>2015-04-17T15:22:16Z</time>
      </trkpt>
      <trkpt lat="43.84101" lon="4.87784">
        <ele>88.1</ele>
        <time>2015-04-17T15:22:35Z</time>
      </trkpt>
      <trkpt lat="43.84131" lon="4.87808">
        <ele>88.1</ele>
        <time>2015-04-17T15:22:51Z</time>
      </trkpt>
      <trkpt lat="43.84164" lon="4.87838">
        <ele>87.62</ele>
        <time>2015-04-17T15:23:04Z</time>
      </trkpt>
      <trkpt lat="43.84219" lon="4.87881">
        <ele>88.1</ele>
        <time>2015-04-17T15:23:25Z</time>
      </trkpt>
      <trkpt lat="43.84254" lon="4.87908">
        <ele>86.66</ele>
        <time>2015-04-17T15:23:41Z</time>
      </trkpt>
      <trkpt lat="43.84312" lon="4.87952">
        <ele>87.14</ele>
        <time>2015-04-17T15:24:02Z</time>
      </trkpt>
      <trkpt lat="43.84359" lon="4.87993">
        <ele>87.62</ele>
        <time>2015-04-17T15:24:21Z</time>
      </trkpt>
      <trkpt lat="43.8436" lon="4.88012">
        <ele>87.62</ele>
        <time>2015-04-17T15:24:28Z</time>
      </trkpt>
      <trkpt lat="43.84358" lon="4.88044">
        <ele>87.62</ele>
        <time>2015-04-17T15:24:43Z</time>
      </trkpt>
      <trkpt lat="43.84354" lon="4.88072">
        <ele>88.1</ele>
        <time>2015-04-17T15:24:57Z</time>
      </trkpt>
      <trkpt lat="43.84347" lon="4.88106">
        <ele>87.62</ele>
        <time>2015-04-17T15:25:15Z</time>
      </trkpt>
      <trkpt lat="43.84346" lon="4.88117">
        <ele>88.1</ele>
        <time>2015-04-17T15:25:30Z</time>
      </trkpt>
      <trkpt lat="43.84344" lon="4.88125">
        <ele>88.1</ele>
        <time>2015-04-17T15:25:49Z</time>
      </trkpt>
      <trkpt lat="43.84342" lon="4.88161">
        <ele>87.62</ele>
        <time>2015-04-17T15:26:07Z</time>
      </trkpt>
      <trkpt lat="43.84337" lon="4.88201">
        <ele>88.1</ele>
        <time>2015-04-17T15:26:26Z</time>
      </trkpt>
      <trkpt lat="43.84333" lon="4.88239">
        <ele>88.58</ele>
        <time>2015-04-17T15:26:43Z</time>
      </trkpt>
      <trkpt lat="43.84329" lon="4.88272">
        <ele>88.58</ele>
        <time>2015-04-17T15:26:59Z</time>
      </trkpt>
      <trkpt lat="43.84325" lon="4.88306">
        <ele>89.06</ele>
        <time>2015-04-17T15:27:16Z</time>
      </trkpt>
      <trkpt lat="43.8432" lon="4.8834">
        <ele>89.06</ele>
        <time>2015-04-17T15:27:32Z</time>
      </trkpt>
      <trkpt lat="43.84314" lon="4.88394">
        <ele>89.06</ele>
        <time>2015-04-17T15:27:47Z</time>
      </trkpt>
      <trkpt lat="43.84304" lon="4.88457">
        <ele>89.06</ele>
        <time>2015-04-17T15:28:06Z</time>
      </trkpt>
      <trkpt lat="43.84295" lon="4.88511">
        <ele>89.54</ele>
        <time>2015-04-17T15:28:25Z</time>
      </trkpt>
      <trkpt lat="43.84284" lon="4.88564">
        <ele>89.06</ele>
        <time>2015-04-17T15:28:42Z</time>
      </trkpt>
      <trkpt lat="43.84281" lon="4.88612">
        <ele>89.06</ele>
        <time>2015-04-17T15:29:00Z</time>
      </trkpt>
      <trkpt lat="43.84292" lon="4.8864">
        <ele>86.66</ele>
        <time>2015-04-17T15:29:15Z</time>
      </trkpt>
      <trkpt lat="43.84303" lon="4.88663">
        <ele>83.77</ele>
        <time>2015-04-17T15:29:29Z</time>
      </trkpt>
      <trkpt lat="43.84311" lon="4.8868">
        <ele>81.37</ele>
        <time>2015-04-17T15:29:39Z</time>
      </trkpt>
      <trkpt lat="43.84316" lon="4.88718">
        <ele>78.48</ele>
        <time>2015-04-17T15:29:59Z</time>
      </trkpt>
      <trkpt lat="43.84318" lon="4.88755">
        <ele>75.12</ele>
        <time>2015-04-17T15:30:18Z</time>
      </trkpt>
      <trkpt lat="43.8432" lon="4.88792">
        <ele>72.72</ele>
        <time>2015-04-17T15:30:37Z</time>
      </trkpt>
      <trkpt lat="43.84323" lon="4.88838">
        <ele>71.27</ele>
        <time>2015-04-17T15:31:00Z</time>
      </trkpt>
      <trkpt lat="43.84329" lon="4.88884">
        <ele>68.39</ele>
        <time>2015-04-17T15:31:22Z</time>
      </trkpt>
      <trkpt lat="43.84326" lon="4.88915">
        <ele>65.03</ele>
        <time>2015-04-17T15:31:34Z</time>
      </trkpt>
      <trkpt lat="43.84318" lon="4.88935">
        <ele>62.62</ele>
        <time>2015-04-17T15:31:45Z</time>
      </trkpt>
      <trkpt lat="43.84313" lon="4.8894">
        <ele>62.14</ele>
        <time>2015-04-17T15:31:59Z</time>
      </trkpt>
      <trkpt lat="43.84309" lon="4.88942">
        <ele>61.66</ele>
        <time>2015-04-17T15:32:07Z</time>
      </trkpt>
      <trkpt lat="43.84308" lon="4.88943">
        <ele>61.66</ele>
        <time>2015-04-17T15:32:10Z</time>
      </trkpt>
      <trkpt lat="43.84305" lon="4.88941">
        <ele>61.66</ele>
        <time>2015-04-17T15:32:20Z</time>
      </trkpt>
      <trkpt lat="43.84307" lon="4.88948">
        <ele>61.18</ele>
        <time>2015-04-17T15:32:24Z</time>
      </trkpt>
      <trkpt lat="43.84307" lon="4.88957">
        <ele>61.66</ele>
        <time>2015-04-17T15:32:28Z</time>
      </trkpt>
      <trkpt lat="43.84312" lon="4.88983">
        <ele>60.22</ele>
        <time>2015-04-17T15:32:41Z</time>
      </trkpt>
      <trkpt lat="43.84317" lon="4.8901">
        <ele>59.26</ele>
        <time>2015-04-17T15:32:54Z</time>
      </trkpt>
      <trkpt lat="43.84324" lon="4.89046">
        <ele>57.34</ele>
        <time>2015-04-17T15:33:09Z</time>
      </trkpt>
      <trkpt lat="43.84335" lon="4.89112">
        <ele>54.93</ele>
        <time>2015-04-17T15:33:23Z</time>
      </trkpt>
      <trkpt lat="43.84341" lon="4.89143">
        <ele>53.01</ele>
        <time>2015-04-17T15:33:33Z</time>
      </trkpt>
      <trkpt lat="43.84345" lon="4.892">
        <ele>51.09</ele>
        <time>2015-04-17T15:33:49Z</time>
      </trkpt>
      <trkpt lat="43.84349" lon="4.89237">
        <ele>49.65</ele>
        <time>2015-04-17T15:34:01Z</time>
      </trkpt>
      <trkpt lat="43.84348" lon="4.8928">
        <ele>47.72</ele>
        <time>2015-04-17T15:34:15Z</time>
      </trkpt>
      <trkpt lat="43.84346" lon="4.8933">
        <ele>46.28</ele>
        <time>2015-04-17T15:34:29Z</time>
      </trkpt>
      <trkpt lat="43.84342" lon="4.89393">
        <ele>44.36</ele>
        <time>2015-04-17T15:34:46Z</time>
      </trkpt>
      <trkpt lat="43.8434" lon="4.89439">
        <ele>42.92</ele>
        <time>2015-04-17T15:34:59Z</time>
      </trkpt>
      <trkpt lat="43.84337" lon="4.89475">
        <ele>42.44</ele>
        <time>2015-04-17T15:35:13Z</time>
      </trkpt>
      <trkpt lat="43.84334" lon="4.89518">
        <ele>41.95</ele>
        <time>2015-04-17T15:35:23Z</time>
      </trkpt>
      <trkpt lat="43.84335" lon="4.89526">
        <ele>41.47</ele>
        <time>2015-04-17T15:35:27Z</time>
      </trkpt>
      <trkpt lat="43.84336" lon="4.89527">
        <ele>40.99</ele>
        <time>2015-04-17T15:35:28Z</time>
      </trkpt>
      <trkpt lat="43.84336" lon="4.8953">
        <ele>40.99</ele>
        <time>2015-04-17T15:35:29Z</time>
      </trkpt>
      <trkpt lat="43.84335" lon="4.89533">
        <ele>40.99</ele>
        <time>2015-04-17T15:35:30Z</time>
      </trkpt>
      <trkpt lat="43.84334" lon="4.89537">
        <ele>40.99</ele>
        <time>2015-04-17T15:35:38Z</time>
      </trkpt>
      <trkpt lat="43.84335" lon="4.8954">
        <ele>40.99</ele>
        <time>2015-04-17T15:35:40Z</time>
      </trkpt>
      <trkpt lat="43.84335" lon="4.89543">
        <ele>40.99</ele>
        <time>2015-04-17T15:35:41Z</time>
      </trkpt>
      <trkpt lat="43.84334" lon="4.89547">
        <ele>40.99</ele>
        <time>2015-04-17T15:35:42Z</time>
      </trkpt>
      <trkpt lat="43.84334" lon="4.89551">
        <ele>40.99</ele>
        <time>2015-04-17T15:35:43Z</time>
      </trkpt>
      <trkpt lat="43.84334" lon="4.89555">
        <ele>40.99</ele>
        <time>2015-04-17T15:35:44Z</time>
      </trkpt>
      <trkpt lat="43.84334" lon="4.89558">
        <ele>40.51</ele>
        <time>2015-04-17T15:35:45Z</time>
      </trkpt>
      <trkpt lat="43.84333" lon="4.89562">
        <ele>40.51</ele>
        <time>2015-04-17T15:35:46Z</time>
      </trkpt>
      <trkpt lat="43.84329" lon="4.89624">
        <ele>39.55</ele>
        <time>2015-04-17T15:36:03Z</time>
      </trkpt>
      <trkpt lat="43.84322" lon="4.89675">
        <ele>39.55</ele>
        <time>2015-04-17T15:36:18Z</time>
      </trkpt>
      <trkpt lat="43.84321" lon="4.89678">
        <ele>40.03</ele>
        <time>2015-04-17T15:36:19Z</time>
      </trkpt>
      <trkpt lat="43.84321" lon="4.89682">
        <ele>40.03</ele>
        <time>2015-04-17T15:36:20Z</time>
      </trkpt>
      <trkpt lat="43.84321" lon="4.89685">
        <ele>40.51</ele>
        <time>2015-04-17T15:36:21Z</time>
      </trkpt>
      <trkpt lat="43.84321" lon="4.89744">
        <ele>39.55</ele>
        <time>2015-04-17T15:36:37Z</time>
      </trkpt>
      <trkpt lat="43.84317" lon="4.89804">
        <ele>39.55</ele>
        <time>2015-04-17T15:36:50Z</time>
      </trkpt>
      <trkpt lat="43.84315" lon="4.89862">
        <ele>40.03</ele>
        <time>2015-04-17T15:37:04Z</time>
      </trkpt>
      <trkpt lat="43.84313" lon="4.89912">
        <ele>40.03</ele>
        <time>2015-04-17T15:37:18Z</time>
      </trkpt>
      <trkpt lat="43.84312" lon="4.89932">
        <ele>40.03</ele>
        <time>2015-04-17T15:37:28Z</time>
      </trkpt>
      <trkpt lat="43.84312" lon="4.89946">
        <ele>40.03</ele>
        <time>2015-04-17T15:37:40Z</time>
      </trkpt>
      <trkpt lat="43.84309" lon="4.89978">
        <ele>40.51</ele>
        <time>2015-04-17T15:37:49Z</time>
      </trkpt>
      <trkpt lat="43.84307" lon="4.90019">
        <ele>40.51</ele>
        <time>2015-04-17T15:38:02Z</time>
      </trkpt>
      <trkpt lat="43.84305" lon="4.90066">
        <ele>40.51</ele>
        <time>2015-04-17T15:38:17Z</time>
      </trkpt>
      <trkpt lat="43.84302" lon="4.9013">
        <ele>40.51</ele>
        <time>2015-04-17T15:38:33Z</time>
      </trkpt>
      <trkpt lat="43.843" lon="4.90132">
        <ele>40.51</ele>
        <time>2015-04-17T15:38:34Z</time>
      </trkpt>
      <trkpt lat="43.84298" lon="4.90134">
        <ele>40.03</ele>
        <time>2015-04-17T15:38:35Z</time>
      </trkpt>
      <trkpt lat="43.84296" lon="4.90135">
        <ele>40.03</ele>
        <time>2015-04-17T15:38:36Z</time>
      </trkpt>
      <trkpt lat="43.84293" lon="4.90136">
        <ele>40.51</ele>
        <time>2015-04-17T15:38:37Z</time>
      </trkpt>
      <trkpt lat="43.84289" lon="4.90138">
        <ele>40.03</ele>
        <time>2015-04-17T15:38:38Z</time>
      </trkpt>
      <trkpt lat="43.84286" lon="4.90139">
        <ele>40.51</ele>
        <time>2015-04-17T15:38:39Z</time>
      </trkpt>
      <trkpt lat="43.84283" lon="4.9014">
        <ele>40.51</ele>
        <time>2015-04-17T15:38:40Z</time>
      </trkpt>
      <trkpt lat="43.84242" lon="4.90151">
        <ele>40.99</ele>
        <time>2015-04-17T15:38:54Z</time>
      </trkpt>
      <trkpt lat="43.84185" lon="4.90167">
        <ele>40.51</ele>
        <time>2015-04-17T15:39:10Z</time>
      </trkpt>
      <trkpt lat="43.84141" lon="4.90179">
        <ele>41.47</ele>
        <time>2015-04-17T15:39:24Z</time>
      </trkpt>
      <trkpt lat="43.84099" lon="4.90192">
        <ele>41.47</ele>
        <time>2015-04-17T15:39:38Z</time>
      </trkpt>
      <trkpt lat="43.84049" lon="4.90203">
        <ele>40.99</ele>
        <time>2015-04-17T15:39:55Z</time>
      </trkpt>
      <trkpt lat="43.84013" lon="4.90216">
        <ele>40.99</ele>
        <time>2015-04-17T15:40:09Z</time>
      </trkpt>
      <trkpt lat="43.84009" lon="4.90217">
        <ele>40.99</ele>
        <time>2015-04-17T15:40:11Z</time>
      </trkpt>
      <trkpt lat="43.84006" lon="4.90217">
        <ele>41.47</ele>
        <time>2015-04-17T15:40:12Z</time>
      </trkpt>
      <trkpt lat="43.83965" lon="4.90233">
        <ele>40.99</ele>
        <time>2015-04-17T15:40:24Z</time>
      </trkpt>
      <trkpt lat="43.83936" lon="4.90243">
        <ele>41.47</ele>
        <time>2015-04-17T15:40:34Z</time>
      </trkpt>
      <trkpt lat="43.83909" lon="4.90251">
        <ele>41.47</ele>
        <time>2015-04-17T15:40:43Z</time>
      </trkpt>
      <trkpt lat="43.83862" lon="4.90262">
        <ele>40.99</ele>
        <time>2015-04-17T15:40:57Z</time>
      </trkpt>
      <trkpt lat="43.83821" lon="4.90271">
        <ele>40.51</ele>
        <time>2015-04-17T15:41:11Z</time>
      </trkpt>
      <trkpt lat="43.83759" lon="4.90286">
        <ele>40.99</ele>
        <time>2015-04-17T15:41:29Z</time>
      </trkpt>
      <trkpt lat="43.83718" lon="4.90297">
        <ele>40.99</ele>
        <time>2015-04-17T15:41:43Z</time>
      </trkpt>
      <trkpt lat="43.83684" lon="4.90305">
        <ele>40.99</ele>
        <time>2015-04-17T15:41:58Z</time>
      </trkpt>
      <trkpt lat="43.8368" lon="4.90307">
        <ele>41.47</ele>
        <time>2015-04-17T15:42:02Z</time>
      </trkpt>
      <trkpt lat="43.83678" lon="4.90309">
        <ele>41.47</ele>
        <time>2015-04-17T15:42:03Z</time>
      </trkpt>
      <trkpt lat="43.83677" lon="4.90311">
        <ele>41.95</ele>
        <time>2015-04-17T15:42:04Z</time>
      </trkpt>
      <trkpt lat="43.83676" lon="4.90314">
        <ele>41.95</ele>
        <time>2015-04-17T15:42:05Z</time>
      </trkpt>
      <trkpt lat="43.83675" lon="4.90317">
        <ele>41.95</ele>
        <time>2015-04-17T15:42:06Z</time>
      </trkpt>
      <trkpt lat="43.83674" lon="4.90321">
        <ele>41.95</ele>
        <time>2015-04-17T15:42:07Z</time>
      </trkpt>
      <trkpt lat="43.83674" lon="4.90324">
        <ele>41.95</ele>
        <time>2015-04-17T15:42:08Z</time>
      </trkpt>
      <trkpt lat="43.83675" lon="4.90328">
        <ele>41.95</ele>
        <time>2015-04-17T15:42:09Z</time>
      </trkpt>
      <trkpt lat="43.8368" lon="4.90391">
        <ele>41.95</ele>
        <time>2015-04-17T15:42:25Z</time>
      </trkpt>
      <trkpt lat="43.83687" lon="4.90457">
        <ele>41.95</ele>
        <time>2015-04-17T15:42:40Z</time>
      </trkpt>
      <trkpt lat="43.83695" lon="4.90547">
        <ele>42.44</ele>
        <time>2015-04-17T15:43:00Z</time>
      </trkpt>
      <trkpt lat="43.83705" lon="4.90634">
        <ele>42.92</ele>
        <time>2015-04-17T15:43:19Z</time>
      </trkpt>
      <trkpt lat="43.83717" lon="4.90723">
        <ele>42.92</ele>
        <time>2015-04-17T15:43:39Z</time>
      </trkpt>
      <trkpt lat="43.83732" lon="4.90803">
        <ele>43.88</ele>
        <time>2015-04-17T15:43:56Z</time>
      </trkpt>
      <trkpt lat="43.83746" lon="4.90872">
        <ele>42.92</ele>
        <time>2015-04-17T15:44:11Z</time>
      </trkpt>
      <trkpt lat="43.83758" lon="4.90951">
        <ele>42.92</ele>
        <time>2015-04-17T15:44:29Z</time>
      </trkpt>
      <trkpt lat="43.83773" lon="4.91022">
        <ele>42.92</ele>
        <time>2015-04-17T15:44:46Z</time>
      </trkpt>
      <trkpt lat="43.83789" lon="4.91097">
        <ele>42.92</ele>
        <time>2015-04-17T15:45:04Z</time>
      </trkpt>
      <trkpt lat="43.83808" lon="4.91168">
        <ele>43.4</ele>
        <time>2015-04-17T15:45:23Z</time>
      </trkpt>
      <trkpt lat="43.83829" lon="4.91243">
        <ele>43.4</ele>
        <time>2015-04-17T15:45:40Z</time>
      </trkpt>
      <trkpt lat="43.83844" lon="4.91298">
        <ele>43.4</ele>
        <time>2015-04-17T15:45:53Z</time>
      </trkpt>
      <trkpt lat="43.83863" lon="4.91374">
        <ele>43.88</ele>
        <time>2015-04-17T15:46:11Z</time>
      </trkpt>
      <trkpt lat="43.8388" lon="4.91447">
        <ele>44.36</ele>
        <time>2015-04-17T15:46:27Z</time>
      </trkpt>
      <trkpt lat="43.83906" lon="4.91555">
        <ele>44.36</ele>
        <time>2015-04-17T15:46:49Z</time>
      </trkpt>
      <trkpt lat="43.83932" lon="4.91644">
        <ele>44.36</ele>
        <time>2015-04-17T15:47:08Z</time>
      </trkpt>
      <trkpt lat="43.83936" lon="4.91699">
        <ele>44.36</ele>
        <time>2015-04-17T15:47:21Z</time>
      </trkpt>
      <trkpt lat="43.83957" lon="4.91763">
        <ele>44.84</ele>
        <time>2015-04-17T15:47:37Z</time>
      </trkpt>
      <trkpt lat="43.83969" lon="4.91824">
        <ele>45.32</ele>
        <time>2015-04-17T15:47:53Z</time>
      </trkpt>
      <trkpt lat="43.83978" lon="4.91884">
        <ele>46.28</ele>
        <time>2015-04-17T15:48:11Z</time>
      </trkpt>
      <trkpt lat="43.83979" lon="4.91888">
        <ele>46.76</ele>
        <time>2015-04-17T15:48:12Z</time>
      </trkpt>
      <trkpt lat="43.83991" lon="4.9194">
        <ele>45.32</ele>
        <time>2015-04-17T15:48:25Z</time>
      </trkpt>
      <trkpt lat="43.83998" lon="4.91967">
        <ele>45.8</ele>
        <time>2015-04-17T15:48:34Z</time>
      </trkpt>
      <trkpt lat="43.83997" lon="4.9197">
        <ele>45.8</ele>
        <time>2015-04-17T15:48:35Z</time>
      </trkpt>
      <trkpt lat="43.83995" lon="4.91973">
        <ele>45.8</ele>
        <time>2015-04-17T15:48:36Z</time>
      </trkpt>
      <trkpt lat="43.83978" lon="4.9202">
        <ele>45.8</ele>
        <time>2015-04-17T15:48:49Z</time>
      </trkpt>
      <trkpt lat="43.83953" lon="4.92084">
        <ele>46.28</ele>
        <time>2015-04-17T15:49:08Z</time>
      </trkpt>
      <trkpt lat="43.83908" lon="4.92108">
        <ele>45.8</ele>
        <time>2015-04-17T15:49:24Z</time>
      </trkpt>
      <trkpt lat="43.83874" lon="4.92131">
        <ele>46.28</ele>
        <time>2015-04-17T15:49:38Z</time>
      </trkpt>
      <trkpt lat="43.83855" lon="4.92172">
        <ele>46.28</ele>
        <time>2015-04-17T15:49:52Z</time>
      </trkpt>
      <trkpt lat="43.83832" lon="4.92223">
        <ele>46.76</ele>
        <time>2015-04-17T15:50:08Z</time>
      </trkpt>
      <trkpt lat="43.83808" lon="4.92286">
        <ele>46.76</ele>
        <time>2015-04-17T15:50:25Z</time>
      </trkpt>
      <trkpt lat="43.83792" lon="4.9234">
        <ele>46.76</ele>
        <time>2015-04-17T15:50:38Z</time>
      </trkpt>
      <trkpt lat="43.83785" lon="4.92379">
        <ele>46.76</ele>
        <time>2015-04-17T15:50:49Z</time>
      </trkpt>
      <trkpt lat="43.83779" lon="4.92446">
        <ele>47.24</ele>
        <time>2015-04-17T15:51:03Z</time>
      </trkpt>
      <trkpt lat="43.83777" lon="4.92519">
        <ele>47.24</ele>
        <time>2015-04-17T15:51:19Z</time>
      </trkpt>
      <trkpt lat="43.83774" lon="4.92576">
        <ele>47.24</ele>
        <time>2015-04-17T15:51:32Z</time>
      </trkpt>
      <trkpt lat="43.83763" lon="4.92645">
        <ele>47.72</ele>
        <time>2015-04-17T15:51:47Z</time>
      </trkpt>
      <trkpt lat="43.83751" lon="4.92712">
        <ele>48.2</ele>
        <time>2015-04-17T15:52:01Z</time>
      </trkpt>
      <trkpt lat="43.83733" lon="4.92788">
        <ele>48.2</ele>
        <time>2015-04-17T15:52:16Z</time>
      </trkpt>
      <trkpt lat="43.83716" lon="4.92854">
        <ele>48.2</ele>
        <time>2015-04-17T15:52:30Z</time>
      </trkpt>
      <trkpt lat="43.83714" lon="4.92937">
        <ele>48.68</ele>
        <time>2015-04-17T15:52:46Z</time>
      </trkpt>
      <trkpt lat="43.83699" lon="4.9301">
        <ele>48.68</ele>
        <time>2015-04-17T15:53:00Z</time>
      </trkpt>
      <trkpt lat="43.83675" lon="4.93071">
        <ele>48.68</ele>
        <time>2015-04-17T15:53:14Z</time>
      </trkpt>
      <trkpt lat="43.83652" lon="4.9314">
        <ele>48.68</ele>
        <time>2015-04-17T15:53:30Z</time>
      </trkpt>
      <trkpt lat="43.83638" lon="4.93214">
        <ele>49.16</ele>
        <time>2015-04-17T15:53:45Z</time>
      </trkpt>
      <trkpt lat="43.83641" lon="4.9328">
        <ele>49.16</ele>
        <time>2015-04-17T15:53:58Z</time>
      </trkpt>
      <trkpt lat="43.83642" lon="4.93341">
        <ele>49.16</ele>
        <time>2015-04-17T15:54:13Z</time>
      </trkpt>
      <trkpt lat="43.83638" lon="4.93394">
        <ele>49.65</ele>
        <time>2015-04-17T15:54:26Z</time>
      </trkpt>
      <trkpt lat="43.83638" lon="4.93462">
        <ele>49.16</ele>
        <time>2015-04-17T15:54:41Z</time>
      </trkpt>
      <trkpt lat="43.83632" lon="4.93543">
        <ele>49.65</ele>
        <time>2015-04-17T15:54:59Z</time>
      </trkpt>
      <trkpt lat="43.83624" lon="4.93602">
        <ele>49.16</ele>
        <time>2015-04-17T15:55:13Z</time>
      </trkpt>
      <trkpt lat="43.83624" lon="4.9366">
        <ele>49.65</ele>
        <time>2015-04-17T15:55:27Z</time>
      </trkpt>
      <trkpt lat="43.83629" lon="4.93731">
        <ele>49.65</ele>
        <time>2015-04-17T15:55:44Z</time>
      </trkpt>
      <trkpt lat="43.8363" lon="4.93761">
        <ele>49.65</ele>
        <time>2015-04-17T15:55:53Z</time>
      </trkpt>
      <trkpt lat="43.83632" lon="4.93762">
        <ele>49.65</ele>
        <time>2015-04-17T15:55:54Z</time>
      </trkpt>
      <trkpt lat="43.83634" lon="4.93763">
        <ele>49.65</ele>
        <time>2015-04-17T15:55:55Z</time>
      </trkpt>
      <trkpt lat="43.83637" lon="4.93763">
        <ele>49.65</ele>
        <time>2015-04-17T15:55:56Z</time>
      </trkpt>
      <trkpt lat="43.83639" lon="4.93762">
        <ele>49.65</ele>
        <time>2015-04-17T15:55:57Z</time>
      </trkpt>
      <trkpt lat="43.83642" lon="4.93762">
        <ele>49.65</ele>
        <time>2015-04-17T15:55:58Z</time>
      </trkpt>
      <trkpt lat="43.83677" lon="4.93755">
        <ele>49.16</ele>
        <time>2015-04-17T15:56:13Z</time>
      </trkpt>
      <trkpt lat="43.83701" lon="4.93749">
        <ele>49.65</ele>
        <time>2015-04-17T15:56:28Z</time>
      </trkpt>
      <trkpt lat="43.83723" lon="4.93739">
        <ele>48.68</ele>
        <time>2015-04-17T15:56:43Z</time>
      </trkpt>
      <trkpt lat="43.83724" lon="4.93739">
        <ele>49.16</ele>
        <time>2015-04-17T15:56:44Z</time>
      </trkpt>
      <trkpt lat="43.83726" lon="4.93738">
        <ele>49.16</ele>
        <time>2015-04-17T15:56:45Z</time>
      </trkpt>
      <trkpt lat="43.83728" lon="4.93738">
        <ele>49.16</ele>
        <time>2015-04-17T15:56:46Z</time>
      </trkpt>
      <trkpt lat="43.83729" lon="4.93738">
        <ele>49.16</ele>
        <time>2015-04-17T15:56:47Z</time>
      </trkpt>
      <trkpt lat="43.83743" lon="4.93731">
        <ele>48.68</ele>
        <time>2015-04-17T15:56:58Z</time>
      </trkpt>
      <trkpt lat="43.83748" lon="4.93726">
        <ele>49.16</ele>
        <time>2015-04-17T15:57:05Z</time>
      </trkpt>
      <trkpt lat="43.83752" lon="4.93721">
        <ele>48.68</ele>
        <time>2015-04-17T15:57:15Z</time>
      </trkpt>
      <trkpt lat="43.83752" lon="4.93718">
        <ele>48.68</ele>
        <time>2015-04-17T15:57:27Z</time>
      </trkpt>
      <trkpt lat="43.83753" lon="4.93715">
        <ele>48.68</ele>
        <time>2015-04-17T15:57:40Z</time>
      </trkpt>
      <trkpt lat="43.83747" lon="4.93716">
        <ele>49.16</ele>
        <time>2015-04-17T15:57:51Z</time>
      </trkpt>
      <trkpt lat="43.83745" lon="4.93718">
        <ele>49.16</ele>
        <time>2015-04-17T15:58:05Z</time>
      </trkpt>
      <trkpt lat="43.83743" lon="4.93719">
        <ele>49.16</ele>
        <time>2015-04-17T15:58:15Z</time>
      </trkpt>
      <trkpt lat="43.83746" lon="4.93718">
        <ele>49.16</ele>
        <time>2015-04-17T15:58:28Z</time>
      </trkpt>
      <trkpt lat="43.83748" lon="4.93718">
        <ele>49.16</ele>
        <time>2015-04-17T15:58:30Z</time>
      </trkpt>
      <trkpt lat="43.8375" lon="4.9372">
        <ele>48.68</ele>
        <time>2015-04-17T15:58:38Z</time>
      </trkpt>
      <trkpt lat="43.83747" lon="4.93722">
        <ele>49.16</ele>
        <time>2015-04-17T15:58:51Z</time>
      </trkpt>
      <trkpt lat="43.83749" lon="4.93718">
        <ele>49.16</ele>
        <time>2015-04-17T15:59:04Z</time>
      </trkpt>
      <trkpt lat="43.83745" lon="4.9372">
        <ele>49.16</ele>
        <time>2015-04-17T15:59:23Z</time>
      </trkpt>
      <trkpt lat="43.83745" lon="4.9372">
        <ele>49.16</ele>
        <time>2015-04-17T15:59:26Z</time>
      </trkpt>
      <trkpt lat="43.83748" lon="4.93721">
        <ele>49.16</ele>
        <time>2015-04-17T15:59:37Z</time>
      </trkpt>
      <trkpt lat="43.83751" lon="4.93713">
        <ele>49.16</ele>
        <time>2015-04-17T15:59:46Z</time>
      </trkpt>
      <trkpt lat="43.8375" lon="4.93712">
        <ele>48.68</ele>
        <time>2015-04-17T15:59:56Z</time>
      </trkpt>
      <trkpt lat="43.83747" lon="4.93717">
        <ele>48.68</ele>
        <time>2015-04-17T16:00:06Z</time>
      </trkpt>
      <trkpt lat="43.8375" lon="4.93708">
        <ele>48.68</ele>
        <time>2015-04-17T16:00:13Z</time>
      </trkpt>
      <trkpt lat="43.83751" lon="4.93698">
        <ele>48.68</ele>
        <time>2015-04-17T16:00:26Z</time>
      </trkpt>
      <trkpt lat="43.83752" lon="4.93691">
        <ele>48.68</ele>
        <time>2015-04-17T16:00:42Z</time>
      </trkpt>
      <trkpt lat="43.83754" lon="4.9369">
        <ele>48.68</ele>
        <time>2015-04-17T16:00:57Z</time>
      </trkpt>
      <trkpt lat="43.83754" lon="4.93689">
        <ele>48.68</ele>
        <time>2015-04-17T16:01:13Z</time>
      </trkpt>
      <trkpt lat="43.83755" lon="4.9369">
        <ele>48.68</ele>
        <time>2015-04-17T16:01:31Z</time>
      </trkpt>
      <trkpt lat="43.83754" lon="4.9369">
        <ele>48.68</ele>
        <time>2015-04-17T16:01:52Z</time>
      </trkpt>
      <trkpt lat="43.83755" lon="4.93689">
        <ele>48.68</ele>
        <time>2015-04-17T16:02:12Z</time>
      </trkpt>
      <trkpt lat="43.83755" lon="4.9369">
        <ele>48.68</ele>
        <time>2015-04-17T16:02:32Z</time>
      </trkpt>
      <trkpt lat="43.83753" lon="4.9369">
        <ele>49.16</ele>
        <time>2015-04-17T16:02:54Z</time>
      </trkpt>
      <trkpt lat="43.83753" lon="4.93691">
        <ele>48.68</ele>
        <time>2015-04-17T16:03:07Z</time>
      </trkpt>
      <trkpt lat="43.83751" lon="4.93694">
        <ele>48.68</ele>
        <time>2015-04-17T16:03:11Z</time>
      </trkpt>
      <trkpt lat="43.83752" lon="4.93718">
        <ele>49.16</ele>
        <time>2015-04-17T16:03:27Z</time>
      </trkpt>
      <trkpt lat="43.83752" lon="4.93717">
        <ele>48.68</ele>
        <time>2015-04-17T16:03:29Z</time>
      </trkpt>
      <trkpt lat="43.83757" lon="4.93708">
        <ele>48.68</ele>
        <time>2015-04-17T16:03:42Z</time>
      </trkpt>
      <trkpt lat="43.83754" lon="4.9371">
        <ele>49.16</ele>
        <time>2015-04-17T16:03:58Z</time>
      </trkpt>
      <trkpt lat="43.83755" lon="4.93709">
        <ele>49.16</ele>
        <time>2015-04-17T16:04:12Z</time>
      </trkpt>
      <trkpt lat="43.83754" lon="4.93708">
        <ele>49.16</ele>
        <time>2015-04-17T16:04:26Z</time>
      </trkpt>
      <trkpt lat="43.83753" lon="4.93709">
        <ele>49.16</ele>
        <time>2015-04-17T16:04:43Z</time>
      </trkpt>
      <trkpt lat="43.83749" lon="4.93715">
        <ele>49.16</ele>
        <time>2015-04-17T16:05:02Z</time>
      </trkpt>
      <trkpt lat="43.8375" lon="4.93715">
        <ele>49.16</ele>
        <time>2015-04-17T16:05:16Z</time>
      </trkpt>
      <trkpt lat="43.8375" lon="4.93706">
        <ele>49.16</ele>
        <time>2015-04-17T16:05:25Z</time>
      </trkpt>
      <trkpt lat="43.83752" lon="4.93703">
        <ele>49.16</ele>
        <time>2015-04-17T16:05:44Z</time>
      </trkpt>
      <trkpt lat="43.83751" lon="4.93703">
        <ele>49.16</ele>
        <time>2015-04-17T16:05:46Z</time>
      </trkpt>
      <trkpt lat="43.83751" lon="4.93697">
        <ele>49.16</ele>
        <time>2015-04-17T16:05:59Z</time>
      </trkpt>
      <trkpt lat="43.83752" lon="4.937">
        <ele>49.16</ele>
        <time>2015-04-17T16:06:13Z</time>
      </trkpt>
      <trkpt lat="43.83753" lon="4.93706">
        <ele>49.16</ele>
        <time>2015-04-17T16:06:31Z</time>
      </trkpt>
      <trkpt lat="43.83752" lon="4.9371">
        <ele>49.16</ele>
        <time>2015-04-17T16:06:43Z</time>
      </trkpt>
      <trkpt lat="43.83745" lon="4.93711">
        <ele>49.16</ele>
        <time>2015-04-17T16:06:49Z</time>
      </trkpt>
      <trkpt lat="43.83744" lon="4.93714">
        <ele>49.65</ele>
        <time>2015-04-17T16:07:02Z</time>
      </trkpt>
      <trkpt lat="43.83747" lon="4.93716">
        <ele>49.16</ele>
        <time>2015-04-17T16:07:14Z</time>
      </trkpt>
      <trkpt lat="43.83747" lon="4.93714">
        <ele>49.65</ele>
        <time>2015-04-17T16:07:29Z</time>
      </trkpt>
      <trkpt lat="43.83748" lon="4.93715">
        <ele>49.16</ele>
        <time>2015-04-17T16:07:48Z</time>
      </trkpt>
      <trkpt lat="43.83747" lon="4.93712">
        <ele>49.16</ele>
        <time>2015-04-17T16:08:01Z</time>
      </trkpt>
      <trkpt lat="43.83746" lon="4.9371">
        <ele>49.16</ele>
        <time>2015-04-17T16:08:16Z</time>
      </trkpt>
      <trkpt lat="43.83747" lon="4.93712">
        <ele>49.65</ele>
        <time>2015-04-17T16:08:28Z</time>
      </trkpt>
      <trkpt lat="43.83747" lon="4.93712">
        <ele>49.16</ele>
        <time>2015-04-17T16:08:45Z</time>
      </trkpt>
      <trkpt lat="43.83747" lon="4.93711">
        <ele>49.65</ele>
        <time>2015-04-17T16:09:04Z</time>
      </trkpt>
      <trkpt lat="43.83747" lon="4.9371">
        <ele>50.13</ele>
        <time>2015-04-17T16:09:20Z</time>
      </trkpt>
      <trkpt lat="43.83747" lon="4.9371">
        <ele>49.65</ele>
        <time>2015-04-17T16:09:37Z</time>
      </trkpt>
      <trkpt lat="43.83748" lon="4.93711">
        <ele>50.13</ele>
        <time>2015-04-17T16:09:50Z</time>
      </trkpt>
      <trkpt lat="43.83748" lon="4.93711">
        <ele>50.13</ele>
        <time>2015-04-17T16:10:03Z</time>
      </trkpt>
      <trkpt lat="43.83747" lon="4.93711">
        <ele>50.13</ele>
        <time>2015-04-17T16:10:18Z</time>
      </trkpt>
      <trkpt lat="43.83748" lon="4.93711">
        <ele>50.13</ele>
        <time>2015-04-17T16:10:34Z</time>
      </trkpt>
      <trkpt lat="43.83747" lon="4.93709">
        <ele>49.65</ele>
        <time>2015-04-17T16:10:49Z</time>
      </trkpt>
      <trkpt lat="43.83745" lon="4.93709">
        <ele>49.65</ele>
        <time>2015-04-17T16:11:04Z</time>
      </trkpt>
      <trkpt lat="43.83745" lon="4.9371">
        <ele>49.16</ele>
        <time>2015-04-17T16:11:23Z</time>
      </trkpt>
      <trkpt lat="43.83748" lon="4.93709">
        <ele>49.65</ele>
        <time>2015-04-17T16:11:43Z</time>
      </trkpt>
      <trkpt lat="43.8375" lon="4.93704">
        <ele>49.65</ele>
        <time>2015-04-17T16:11:55Z</time>
      </trkpt>
      <trkpt lat="43.83751" lon="4.93699">
        <ele>49.65</ele>
        <time>2015-04-17T16:12:07Z</time>
      </trkpt>
      <trkpt lat="43.8375" lon="4.937">
        <ele>49.65</ele>
        <time>2015-04-17T16:12:17Z</time>
      </trkpt>
      <trkpt lat="43.83746" lon="4.93706">
        <ele>49.16</ele>
        <time>2015-04-17T16:12:29Z</time>
      </trkpt>
      <trkpt lat="43.83748" lon="4.93706">
        <ele>49.16</ele>
        <time>2015-04-17T16:12:41Z</time>
      </trkpt>
      <trkpt lat="43.83752" lon="4.937">
        <ele>49.65</ele>
        <time>2015-04-17T16:12:55Z</time>
      </trkpt>
      <trkpt lat="43.83752" lon="4.93701">
        <ele>49.65</ele>
        <time>2015-04-17T16:13:14Z</time>
      </trkpt>
      <trkpt lat="43.8375" lon="4.93704">
        <ele>49.65</ele>
        <time>2015-04-17T16:13:27Z</time>
      </trkpt>
      <trkpt lat="43.83749" lon="4.93708">
        <ele>49.65</ele>
        <time>2015-04-17T16:13:44Z</time>
      </trkpt>
      <trkpt lat="43.83751" lon="4.9371">
        <ele>49.65</ele>
        <time>2015-04-17T16:13:59Z</time>
      </trkpt>
      <trkpt lat="43.83753" lon="4.93712">
        <ele>50.13</ele>
        <time>2015-04-17T16:14:09Z</time>
      </trkpt>
      <trkpt lat="43.83754" lon="4.93717">
        <ele>50.13</ele>
        <time>2015-04-17T16:14:22Z</time>
      </trkpt>
      <trkpt lat="43.83751" lon="4.93713">
        <ele>49.65</ele>
        <time>2015-04-17T16:14:25Z</time>
      </trkpt>
      <trkpt lat="43.83752" lon="4.93703">
        <ele>50.13</ele>
        <time>2015-04-17T16:14:42Z</time>
      </trkpt>
      <trkpt lat="43.83752" lon="4.93702">
        <ele>50.13</ele>
        <time>2015-04-17T16:15:04Z</time>
      </trkpt>
      <trkpt lat="43.8375" lon="4.93707">
        <ele>50.61</ele>
        <time>2015-04-17T16:15:16Z</time>
      </trkpt>
      <trkpt lat="43.83751" lon="4.93718">
        <ele>50.61</ele>
        <time>2015-04-17T16:15:27Z</time>
      </trkpt>
      <trkpt lat="43.8375" lon="4.93721">
        <ele>50.61</ele>
        <time>2015-04-17T16:15:38Z</time>
      </trkpt>
      <trkpt lat="43.8375" lon="4.93721">
        <ele>50.61</ele>
        <time>2015-04-17T16:15:40Z</time>
      </trkpt>
      <trkpt lat="43.8375" lon="4.93714">
        <ele>50.61</ele>
        <time>2015-04-17T16:15:45Z</time>
      </trkpt>
      <trkpt lat="43.83756" lon="4.93716">
        <ele>50.61</ele>
        <time>2015-04-17T16:15:57Z</time>
      </trkpt>
      <trkpt lat="43.83755" lon="4.93716">
        <ele>51.09</ele>
        <time>2015-04-17T16:16:12Z</time>
      </trkpt>
      <trkpt lat="43.83755" lon="4.93713">
        <ele>50.61</ele>
        <time>2015-04-17T16:16:24Z</time>
      </trkpt>
      <trkpt lat="43.83754" lon="4.93714">
        <ele>50.61</ele>
        <time>2015-04-17T16:16:40Z</time>
      </trkpt>
      <trkpt lat="43.83754" lon="4.93714">
        <ele>50.61</ele>
        <time>2015-04-17T16:16:51Z</time>
      </trkpt>
      <trkpt lat="43.83755" lon="4.93715">
        <ele>50.61</ele>
        <time>2015-04-17T16:17:08Z</time>
      </trkpt>
      <trkpt lat="43.83755" lon="4.93711">
        <ele>51.09</ele>
        <time>2015-04-17T16:17:25Z</time>
      </trkpt>
      <trkpt lat="43.83753" lon="4.9371">
        <ele>50.61</ele>
        <time>2015-04-17T16:17:29Z</time>
      </trkpt>
      <trkpt lat="43.83752" lon="4.93704">
        <ele>51.09</ele>
        <time>2015-04-17T16:17:43Z</time>
      </trkpt>
      <trkpt lat="43.8375" lon="4.93702">
        <ele>51.09</ele>
        <time>2015-04-17T16:18:07Z</time>
      </trkpt>
      <trkpt lat="43.83748" lon="4.93701">
        <ele>51.57</ele>
        <time>2015-04-17T16:18:35Z</time>
      </trkpt>
      <trkpt lat="43.83746" lon="4.93704">
        <ele>51.57</ele>
        <time>2015-04-17T16:18:58Z</time>
      </trkpt>
      <trkpt lat="43.83747" lon="4.93703">
        <ele>52.05</ele>
        <time>2015-04-17T16:19:25Z</time>
      </trkpt>
      <trkpt lat="43.83748" lon="4.93702">
        <ele>52.05</ele>
        <time>2015-04-17T16:19:49Z</time>
      </trkpt>
      <trkpt lat="43.83749" lon="4.93701">
        <ele>52.05</ele>
        <time>2015-04-17T16:20:10Z</time>
      </trkpt>
      <trkpt lat="43.83749" lon="4.93699">
        <ele>52.05</ele>
        <time>2015-04-17T16:20:32Z</time>
      </trkpt>
      <trkpt lat="43.83748" lon="4.937">
        <ele>52.05</ele>
        <time>2015-04-17T16:20:59Z</time>
      </trkpt>
      <trkpt lat="43.83748" lon="4.937">
        <ele>52.53</ele>
        <time>2015-04-17T16:21:22Z</time>
      </trkpt>
      <trkpt lat="43.83749" lon="4.937">
        <ele>52.53</ele>
        <time>2015-04-17T16:21:51Z</time>
      </trkpt>
      <trkpt lat="43.83749" lon="4.93701">
        <ele>52.53</ele>
        <time>2015-04-17T16:22:13Z</time>
      </trkpt>
      <trkpt lat="43.83748" lon="4.93704">
        <ele>52.53</ele>
        <time>2015-04-17T16:22:28Z</time>
      </trkpt>
      <trkpt lat="43.8375" lon="4.93704">
        <ele>52.53</ele>
        <time>2015-04-17T16:22:44Z</time>
      </trkpt>
    </trkseg>
  </trk>
</gpx>